Observation data for Guadalupe Mtns Park on 04/09/2020      Previous  Date  Next       Current Mesonet Observations  Soil Data  Daily Summary Page  Observations in Plain Language
KGU1 090500Z 27005KT 19/M02 A3015 RMK A01 T01861021  RH  025%=      5-min Rain = 0
KGU1 090501Z 27006KT 19/M02 A3015 RMK A01 T01851022  RH  025%=      5-min Rain = 0
KGU1 090502Z 27007KT 18/M02 A3015 RMK A01 T01841021  RH  025%=      5-min Rain = 0
KGU1 090503Z 27007KT 18/M02 A3015 RMK A01 T01841022  RH  025%=      5-min Rain = 0
KGU1 090504Z 27006KT 18/M02 A3015 RMK A01 T01831022  RH  025%=      5-min Rain = 0
KGU1 090505Z 27007KT 18/M02 A3015 RMK A01 T01831022  RH  025%=      5-min Rain = 0
KGU1 090506Z 28007KT 18/M03 A3015 RMK A01 T01841025  RH  024%=      5-min Rain = 0
KGU1 090507Z 28007KT 19/M02 A3015 RMK A01 T01851024  RH  024%=      5-min Rain = 0
KGU1 090508Z 29008KT 19/M03 A3015 RMK A01 T01861026  RH  024%=      5-min Rain = 0
KGU1 090509Z 27007KT 19/M03 A3015 RMK A01 T01871026  RH  024%=      5-min Rain = 0
KGU1 090510Z 28008KT 19/M03 A3015 RMK A01 T01871026  RH  024%=      5-min Rain = 0
KGU1 090511Z 28007KT 19/M03 A3015 RMK A01 T01871027  RH  023%=      5-min Rain = 0
KGU1 090512Z 28007KT 19/M03 A3015 RMK A01 T01871027  RH  023%=      5-min Rain = 0
KGU1 090513Z 27006KT 19/M03 A3015 RMK A01 T01861025  RH  024%=      5-min Rain = 0
KGU1 090514Z 27008KT 19/M03 A3015 RMK A01 T01851025  RH  024%=      5-min Rain = 0
KGU1 090515Z 27008KT 19/M03 A3015 RMK A01 T01851026  RH  024%=      5-min Rain = 0
KGU1 090516Z 29007KT 19/M03 A3015 RMK A01 T01851026  RH  024%=      5-min Rain = 0
KGU1 090517Z 29008KT 19/M03 A3015 RMK A01 T01861027  RH  024%=      5-min Rain = 0
KGU1 090518Z 27007KT 19/M03 A3014 RMK A01 T01871028  RH  023%=      5-min Rain = 0
KGU1 090519Z 29007KT 19/M03 A3014 RMK A01 T01901029  RH  023%=      5-min Rain = 0
KGU1 090520Z 29005KT 19/M03 A3014 RMK A01 T01911028  RH  023%=      5-min Rain = 0
KGU1 090521Z 28007KT 19/M03 A3014 RMK A01 T01911027  RH  023%=      5-min Rain = 0
KGU1 090522Z 28008KT 19/M03 A3014 RMK A01 T01901026  RH  023%=      5-min Rain = 0
KGU1 090523Z 28007KT 19/M03 A3014 RMK A01 T01891026  RH  023%=      5-min Rain = 0
KGU1 090524Z 28006KT 19/M03 A3014 RMK A01 T01881027  RH  023%=      5-min Rain = 0
KGU1 090525Z 28007KT 19/M03 A3014 RMK A01 T01871027  RH  023%=      5-min Rain = 0
KGU1 090526Z 28008KT 19/M03 A3014 RMK A01 T01881027  RH  023%=      5-min Rain = 0
KGU1 090527Z 28008KT 19/M03 A3014 RMK A01 T01871027  RH  023%=      5-min Rain = 0
KGU1 090528Z 29007KT 19/M03 A3014 RMK A01 T01871027  RH  023%=      5-min Rain = 0
KGU1 090529Z 29009KT 19/M03 A3014 RMK A01 T01881027  RH  023%=      5-min Rain = 0
KGU1 090530Z 29008KT 19/M03 A3014 RMK A01 T01881027  RH  023%=      5-min Rain = 0
KGU1 090531Z 28007KT 19/M03 A3014 RMK A01 T01891026  RH  023%=      5-min Rain = 0
KGU1 090532Z 27007KT 19/M03 A3014 RMK A01 T01881027  RH  023%=      5-min Rain = 0
KGU1 090533Z 27007KT 19/M03 A3014 RMK A01 T01881027  RH  023%=      5-min Rain = 0
KGU1 090534Z 26005KT 19/M03 A3014 RMK A01 T01871026  RH  024%=      5-min Rain = 0
KGU1 090535Z 26005KT 19/M03 A3014 RMK A01 T01861026  RH  024%=      5-min Rain = 0
KGU1 090536Z 25007KT 19/M03 A3014 RMK A01 T01851026  RH  024%=      5-min Rain = 0
KGU1 090537Z 25008KT 19/M03 A3014 RMK A01 T01851026  RH  024%=      5-min Rain = 0
KGU1 090538Z 25007KT 19/M03 A3014 RMK A01 T01861027  RH  024%=      5-min Rain = 0
KGU1 090539Z 26007KT 19/M03 A3014 RMK A01 T01881026  RH  023%=      5-min Rain = 0
KGU1 090540Z 26007KT 19/M03 A3014 RMK A01 T01881026  RH  024%=      5-min Rain = 0
KGU1 090541Z 26005KT 19/M03 A3014 RMK A01 T01871026  RH  024%=      5-min Rain = 0
KGU1 090542Z 26005KT 19/M03 A3014 RMK A01 T01861026  RH  024%=      5-min Rain = 0
KGU1 090543Z 26008KT 19/M03 A3014 RMK A01 T01861025  RH  024%=      5-min Rain = 0
KGU1 090544Z 25008KT 19/M03 A3014 RMK A01 T01851026  RH  024%=      5-min Rain = 0
KGU1 090545Z 26008KT 19/M03 A3014 RMK A01 T01861026  RH  024%=      5-min Rain = 0
KGU1 090546Z 26007KT 19/M03 A3014 RMK A01 T01861026  RH  024%=      5-min Rain = 0
KGU1 090547Z 25007KT 19/M03 A3014 RMK A01 T01871026  RH  024%=      5-min Rain = 0
KGU1 090548Z 25008KT 19/M03 A3014 RMK A01 T01881026  RH  023%=      5-min Rain = 0
KGU1 090549Z 26006KT 19/M03 A3014 RMK A01 T01881026  RH  024%=      5-min Rain = 0
KGU1 090550Z 27008KT 19/M03 A3014 RMK A01 T01871026  RH  024%=      5-min Rain = 0
KGU1 090551Z 24008KT 19/M03 A3014 RMK A01 T01881026  RH  023%=      5-min Rain = 0
KGU1 090552Z 26008KT 19/M03 A3014 RMK A01 T01901027  RH  023%=      5-min Rain = 0
KGU1 090553Z 26007KT 19/M03 A3014 RMK A01 T01901026  RH  023%=      5-min Rain = 0
KGU1 090554Z 26007KT 19/M03 A3014 RMK A01 T01901026  RH  023%=      5-min Rain = 0
KGU1 090555Z 27010KT 19/M03 A3014 RMK A01 T01901026  RH  023%=      5-min Rain = 0
KGU1 090556Z 25008KT 19/M03 A3014 RMK A01 T01911026  RH  023%=      5-min Rain = 0
KGU1 090557Z 24009KT 19/M03 A3014 RMK A01 T01921026  RH  023%=      5-min Rain = 0
KGU1 090558Z 25009KT 19/M03 A3014 RMK A01 T01921026  RH  023%=      5-min Rain = 0
KGU1 090559Z 25010KT 19/M03 A3014 RMK A01 T01931026  RH  023%=      5-min Rain = 0
KGU1 090600Z 25009KT 19/M03 A3014 RMK A01 T01941027  RH  023%=      5-min Rain = 0
KGU1 090601Z 25009G16KT 19/M03 A3014 RMK A01 T01941026  RH  023%=      5-min Rain = 0
KGU1 090602Z 24011KT 19/M03 A3014 RMK A01 T01941026  RH  023%=      5-min Rain = 0
KGU1 090603Z 25010KT 19/M03 A3014 RMK A01 T01941026  RH  023%=      5-min Rain = 0
KGU1 090604Z 26009KT 19/M03 A3014 RMK A01 T01941026  RH  023%=      5-min Rain = 0
KGU1 090605Z 24009KT 20/M03 A3014 RMK A01 T01951026  RH  023%=      5-min Rain = 0
KGU1 090606Z 24010KT 20/M03 A3014 RMK A01 T01951025  RH  023%=      5-min Rain = 0
KGU1 090607Z 24009KT 19/M02 A3014 RMK A01 T01941024  RH  023%=      5-min Rain = 0
KGU1 090608Z 24010KT 19/M02 A3014 RMK A01 T01931024  RH  023%=      5-min Rain = 0
KGU1 090609Z 24010KT 19/M02 A3014 RMK A01 T01941024  RH  023%=      5-min Rain = 0
KGU1 090610Z 24012KT 19/M02 A3014 RMK A01 T01941024  RH  023%=      5-min Rain = 0
KGU1 090611Z 24010KT 20/M03 A3014 RMK A01 T01951025  RH  023%=      5-min Rain = 0
KGU1 090612Z 24009KT 20/M02 A3014 RMK A01 T01951024  RH  023%=      5-min Rain = 0
KGU1 090613Z 24009KT 19/M02 A3014 RMK A01 T01941024  RH  023%=      5-min Rain = 0
KGU1 090614Z 24011KT 19/M03 A3014 RMK A01 T01931025  RH  023%=      5-min Rain = 0
KGU1 090615Z 24011KT 19/M03 A3014 RMK A01 T01941025  RH  023%=      5-min Rain = 0
KGU1 090616Z 24009KT 20/M03 A3014 RMK A01 T01951026  RH  023%=      5-min Rain = 0
KGU1 090617Z 24009KT 20/M03 A3014 RMK A01 T01951025  RH  023%=      5-min Rain = 0
KGU1 090618Z 24010KT 20/M03 A3014 RMK A01 T01951025  RH  023%=      5-min Rain = 0
KGU1 090619Z 23009KT 20/M02 A3014 RMK A01 T01951024  RH  023%=      5-min Rain = 0
KGU1 090620Z 23007KT 19/M02 A3014 RMK A01 T01941024  RH  023%=      5-min Rain = 0
KGU1 090621Z 24008KT 19/M02 A3014 RMK A01 T01931024  RH  023%=      5-min Rain = 0
KGU1 090622Z 23009G14KT 19/M02 A3014 RMK A01 T01931024  RH  023%=      5-min Rain = 0
KGU1 090623Z 24011KT 19/M02 A3014 RMK A01 T01931024  RH  023%=      5-min Rain = 0
KGU1 090624Z 24010KT 19/M03 A3014 RMK A01 T01941025  RH  023%=      5-min Rain = 0
KGU1 090625Z 24010KT 19/M02 A3014 RMK A01 T01941024  RH  023%=      5-min Rain = 0
KGU1 090626Z 24011G16KT 19/M03 A3014 RMK A01 T01931025  RH  023%=      5-min Rain = 0
KGU1 090627Z 24011KT 19/M03 A3014 RMK A01 T01941026  RH  023%=      5-min Rain = 0
KGU1 090628Z 23010G16KT 20/M03 A3014 RMK A01 T01951026  RH  023%=      5-min Rain = 0
KGU1 090629Z 24012KT 20/M03 A3014 RMK A01 T01951027  RH  022%=      5-min Rain = 0
KGU1 090630Z 24011KT 20/M03 A3014 RMK A01 T01971029  RH  022%=      5-min Rain = 0
KGU1 090631Z 23008KT 20/M03 A3014 RMK A01 T01971029  RH  022%=      5-min Rain = 0
KGU1 090632Z 23008KT 20/M03 A3014 RMK A01 T01971027  RH  022%=      5-min Rain = 0
KGU1 090633Z 23006KT 20/M03 A3014 RMK A01 T01961025  RH  022%=      5-min Rain = 0
KGU1 090634Z 23006KT 19/M03 A3014 RMK A01 T01941025  RH  023%=      5-min Rain = 0
KGU1 090635Z 22007KT 19/M02 A3014 RMK A01 T01931024  RH  023%=      5-min Rain = 0
KGU1 090636Z 23011KT 19/M02 A3013 RMK A01 T01921024  RH  023%=      5-min Rain = 0
KGU1 090637Z 23008KT 19/M03 A3014 RMK A01 T01931025  RH  023%=      5-min Rain = 0
KGU1 090638Z 23009KT 19/M02 A3014 RMK A01 T01921024  RH  023%=      5-min Rain = 0
KGU1 090639Z 22010KT 19/M02 A3014 RMK A01 T01921024  RH  023%=      5-min Rain = 0
KGU1 090640Z 23007KT 19/M02 A3014 RMK A01 T01921024  RH  023%=      5-min Rain = 0
KGU1 090641Z 22006KT 19/M02 A3014 RMK A01 T01921024  RH  023%=      5-min Rain = 0
KGU1 090642Z 23005KT 19/M02 A3014 RMK A01 T01911023  RH  023%=      5-min Rain = 0
KGU1 090643Z 23007KT 19/M02 A3014 RMK A01 T01911023  RH  023%=      5-min Rain = 0
KGU1 090644Z 23009KT 19/M02 A3014 RMK A01 T01911023  RH  023%=      5-min Rain = 0
KGU1 090645Z 22007KT 19/M02 A3014 RMK A01 T01911023  RH  024%=      5-min Rain = 0
KGU1 090646Z 23007KT 19/M02 A3013 RMK A01 T01901023  RH  024%=      5-min Rain = 0
KGU1 090647Z 23009KT 19/M02 A3013 RMK A01 T01901023  RH  024%=      5-min Rain = 0
KGU1 090648Z 23009KT 19/M02 A3013 RMK A01 T01911023  RH  023%=      5-min Rain = 0
KGU1 090649Z 23007KT 19/M02 A3013 RMK A01 T01911023  RH  024%=      5-min Rain = 0
KGU1 090650Z 23007KT 19/M02 A3013 RMK A01 T01901023  RH  024%=      5-min Rain = 0
KGU1 090651Z 23007KT 19/M02 A3013 RMK A01 T01901023  RH  024%=      5-min Rain = 0
KGU1 090652Z 23011KT 19/M03 A3013 RMK A01 T01901025  RH  023%=      5-min Rain = 0
KGU1 090653Z 23009KT 19/M03 A3013 RMK A01 T01921027  RH  023%=      5-min Rain = 0
KGU1 090654Z 23008KT 19/M03 A3013 RMK A01 T01931026  RH  023%=      5-min Rain = 0
KGU1 090655Z 24008KT 19/M03 A3013 RMK A01 T01921025  RH  023%=      5-min Rain = 0
KGU1 090656Z 24012KT 19/M03 A3013 RMK A01 T01921027  RH  023%=      5-min Rain = 0
KGU1 090657Z 24009KT 19/M03 A3013 RMK A01 T01931029  RH  022%=      5-min Rain = 0
KGU1 090658Z 24009KT 19/M03 A3013 RMK A01 T01931028  RH  022%=      5-min Rain = 0
KGU1 090659Z 23008KT 19/M03 A3013 RMK A01 T01931029  RH  022%=      5-min Rain = 0
KGU1 090700Z 23008KT 19/M03 A3013 RMK A01 T01941029  RH  022%=      5-min Rain = 0
KGU1 090701Z 23007KT 19/M03 A3013 RMK A01 T01941028  RH  022%=      5-min Rain = 0
KGU1 090702Z 22008KT 19/M03 A3013 RMK A01 T01931029  RH  022%=      5-min Rain = 0
KGU1 090703Z 22007KT 19/M03 A3013 RMK A01 T01931028  RH  022%=      5-min Rain = 0
KGU1 090704Z 22008KT 19/M03 A3013 RMK A01 T01931027  RH  022%=      5-min Rain = 0
KGU1 090705Z 22008KT 19/M03 A3013 RMK A01 T01931026  RH  023%=      5-min Rain = 0
KGU1 090706Z 20008KT 19/M02 A3013 RMK A01 T01911024  RH  023%=      5-min Rain = 0
KGU1 090707Z 19008KT 19/M02 A3013 RMK A01 T01891021  RH  024%=      5-min Rain = 0
KGU1 090708Z 21009KT 19/M02 A3013 RMK A01 T01861020  RH  025%=      5-min Rain = 0
KGU1 090709Z 21008KT 18/M02 A3013 RMK A01 T01841020  RH  025%=      5-min Rain = 0
KGU1 090710Z 21008KT 18/M02 A3013 RMK A01 T01831019  RH  025%=      5-min Rain = 0
KGU1 090711Z 21008KT 18/M02 A3013 RMK A01 T01811019  RH  026%=      5-min Rain = 0
KGU1 090712Z 21008KT 18/M02 A3013 RMK A01 T01791018  RH  026%=      5-min Rain = 0
KGU1 090713Z 21008KT 18/M02 A3013 RMK A01 T01781018  RH  027%=      5-min Rain = 0
KGU1 090714Z 21008KT 18/M02 A3013 RMK A01 T01771018  RH  027%=      5-min Rain = 0
KGU1 090715Z 21008KT 18/M02 A3013 RMK A01 T01761018  RH  027%=      5-min Rain = 0
KGU1 090716Z 21009KT 18/M02 A3013 RMK A01 T01751018  RH  027%=      5-min Rain = 0
KGU1 090717Z 21007KT 17/M02 A3013 RMK A01 T01741017  RH  027%=      5-min Rain = 0
KGU1 090718Z 21007KT 17/M02 A3013 RMK A01 T01731017  RH  027%=      5-min Rain = 0
KGU1 090719Z 22007KT 17/M02 A3013 RMK A01 T01731018  RH  028%=      5-min Rain = 0
KGU1 090720Z 23007KT 17/M02 A3013 RMK A01 T01721018  RH  028%=      5-min Rain = 0
KGU1 090721Z 22007KT 17/M02 A3013 RMK A01 T01731019  RH  027%=      5-min Rain = 0
KGU1 090722Z 22008KT 17/M02 A3013 RMK A01 T01741018  RH  027%=      5-min Rain = 0
KGU1 090723Z 22008KT 17/M02 A3013 RMK A01 T01741019  RH  027%=      5-min Rain = 0
KGU1 090724Z 23007KT 18/M02 A3013 RMK A01 T01761020  RH  026%=      5-min Rain = 0
KGU1 090725Z 23009KT 18/M02 A3013 RMK A01 T01781021  RH  026%=      5-min Rain = 0
KGU1 090726Z 24011KT 18/M02 A3013 RMK A01 T01801024  RH  025%=      5-min Rain = 0
KGU1 090727Z 25010KT 18/M03 A3013 RMK A01 T01841025  RH  024%=      5-min Rain = 0
KGU1 090728Z 24009KT 19/M03 A3012 RMK A01 T01861027  RH  024%=      5-min Rain = 0
KGU1 090729Z 23008KT 19/M03 A3012 RMK A01 T01881028  RH  023%=      5-min Rain = 0
KGU1 090730Z 24010KT 19/M03 A3012 RMK A01 T01901029  RH  023%=      5-min Rain = 0
KGU1 090731Z 24008KT 19/M03 A3012 RMK A01 T01921029  RH  022%=      5-min Rain = 0
KGU1 090732Z 25010KT 19/M03 A3012 RMK A01 T01931030  RH  022%=      5-min Rain = 0
KGU1 090733Z 24008KT 19/M03 A3012 RMK A01 T01941030  RH  022%=      5-min Rain = 0
KGU1 090734Z 24011KT 20/M03 A3012 RMK A01 T01951031  RH  022%=      5-min Rain = 0
KGU1 090735Z 24009KT 20/M03 A3012 RMK A01 T01951031  RH  021%=      5-min Rain = 0
KGU1 090736Z 23008KT 20/M03 A3011 RMK A01 T01951031  RH  022%=      5-min Rain = 0
KGU1 090737Z 24009KT 20/M03 A3011 RMK A01 T01951031  RH  022%=      5-min Rain = 0
KGU1 090738Z 25013KT 20/M03 A3011 RMK A01 T01951032  RH  021%=      5-min Rain = 0
KGU1 090739Z 24009KT 20/M03 A3011 RMK A01 T01971032  RH  021%=      5-min Rain = 0
KGU1 090740Z 24009KT 20/M03 A3011 RMK A01 T01971031  RH  021%=      5-min Rain = 0
KGU1 090741Z 24008KT 20/M03 A3011 RMK A01 T01971031  RH  021%=      5-min Rain = 0
KGU1 090742Z 24010KT 20/M03 A3011 RMK A01 T01971029  RH  022%=      5-min Rain = 0
KGU1 090743Z 24008KT 20/M03 A3011 RMK A01 T01971030  RH  022%=      5-min Rain = 0
KGU1 090744Z 24008KT 20/M03 A3011 RMK A01 T01971030  RH  021%=      5-min Rain = 0
KGU1 090745Z 24009KT 20/M03 A3011 RMK A01 T01971030  RH  022%=      5-min Rain = 0
KGU1 090746Z 24010KT 20/M03 A3011 RMK A01 T01971029  RH  022%=      5-min Rain = 0
KGU1 090747Z 24010KT 20/M03 A3011 RMK A01 T01981030  RH  022%=      5-min Rain = 0
KGU1 090748Z 24011KT 20/M03 A3011 RMK A01 T01971031  RH  021%=      5-min Rain = 0
KGU1 090749Z 24010KT 20/M03 A3011 RMK A01 T01981030  RH  021%=      5-min Rain = 0
KGU1 090750Z 24009KT 20/M03 A3011 RMK A01 T01981029  RH  022%=      5-min Rain = 0
KGU1 090751Z 26010KT 20/M03 A3011 RMK A01 T01971027  RH  022%=      5-min Rain = 0
KGU1 090752Z 25010KT 20/M03 A3011 RMK A01 T01971026  RH  022%=      5-min Rain = 0
KGU1 090753Z 25010KT 20/M03 A3011 RMK A01 T01971027  RH  022%=      5-min Rain = 0
KGU1 090754Z 24007KT 20/M03 A3011 RMK A01 T01971026  RH  022%=      5-min Rain = 0
KGU1 090755Z 24007KT 20/M03 A3011 RMK A01 T01971027  RH  022%=      5-min Rain = 0
KGU1 090756Z 25007KT 20/M03 A3011 RMK A01 T01961027  RH  022%=      5-min Rain = 0
KGU1 090757Z 23008KT 20/M03 A3011 RMK A01 T01961026  RH  022%=      5-min Rain = 0
KGU1 090758Z 25009KT 20/M03 A3011 RMK A01 T01961025  RH  022%=      5-min Rain = 0
KGU1 090759Z 24008KT 20/M03 A3011 RMK A01 T01971025  RH  022%=      5-min Rain = 0
KGU1 090800Z 25009KT 20/M03 A3011 RMK A01 T01971025  RH  022%=      5-min Rain = 0
KGU1 090801Z 26007KT 20/M03 A3011 RMK A01 T01971025  RH  022%=      5-min Rain = 0
KGU1 090802Z 25008KT 20/M02 A3011 RMK A01 T01971024  RH  022%=      5-min Rain = 0
KGU1 090803Z 25007KT 20/M02 A3011 RMK A01 T01971024  RH  023%=      5-min Rain = 0
KGU1 090804Z 25009KT 20/M02 A3011 RMK A01 T01961024  RH  023%=      5-min Rain = 0
KGU1 090805Z 24010KT 20/M03 A3011 RMK A01 T01971025  RH  022%=      5-min Rain = 0
KGU1 090806Z 23007KT 20/M03 A3011 RMK A01 T01981026  RH  022%=      5-min Rain = 0
KGU1 090807Z 24009KT 20/M03 A3011 RMK A01 T01971026  RH  022%=      5-min Rain = 0
KGU1 090808Z 23009KT 20/M03 A3011 RMK A01 T01971026  RH  022%=      5-min Rain = 0
KGU1 090809Z 24008KT 20/M03 A3011 RMK A01 T01971026  RH  022%=      5-min Rain = 0
KGU1 090810Z 24009KT 20/M03 A301 RMK A01 T01971026  RH  022%=      5-min Rain = 0
KGU1 090811Z 25010G15KT 20/M03 A301 RMK A01 T01971026  RH  022%=      5-min Rain = 0
KGU1 090812Z 25007KT 20/M03 A301 RMK A01 T01971026  RH  022%=      5-min Rain = 0
KGU1 090813Z 25008KT 20/M03 A301 RMK A01 T01971025  RH  022%=      5-min Rain = 0
KGU1 090814Z 25008KT 20/M03 A301 RMK A01 T01971025  RH  022%=      5-min Rain = 0
KGU1 090815Z 25011KT 20/M03 A301 RMK A01 T01971026  RH  022%=      5-min Rain = 0
KGU1 090816Z 26008KT 20/M03 A301 RMK A01 T01971025  RH  022%=      5-min Rain = 0
KGU1 090817Z 25006KT 20/M03 A301 RMK A01 T01971025  RH  022%=      5-min Rain = 0
KGU1 090818Z 24009KT 20/M02 A301 RMK A01 T01971024  RH  022%=      5-min Rain = 0
KGU1 090819Z 25011KT 20/M03 A301 RMK A01 T01971025  RH  022%=      5-min Rain = 0
KGU1 090820Z 24009KT 20/M03 A301 RMK A01 T01971025  RH  022%=      5-min Rain = 0
KGU1 090821Z 25009KT 20/M02 A301 RMK A01 T01971024  RH  022%=      5-min Rain = 0
KGU1 090822Z 26010KT 20/M02 A301 RMK A01 T01971023  RH  023%=      5-min Rain = 0
KGU1 090823Z 25008KT 20/M02 A301 RMK A01 T01981023  RH  023%=      5-min Rain = 0
KGU1 090824Z 25009KT 20/M02 A301 RMK A01 T01991022  RH  023%=      5-min Rain = 0
KGU1 090825Z 26009KT 20/M02 A301 RMK A01 T01991023  RH  022%=      5-min Rain = 0
KGU1 090826Z 23007KT 20/M02 A301 RMK A01 T01991024  RH  022%=      5-min Rain = 0
KGU1 090827Z 23006KT 20/M02 A301 RMK A01 T01991024  RH  022%=      5-min Rain = 0
KGU1 090828Z 24008KT 20/M02 A301 RMK A01 T01981024  RH  022%=      5-min Rain = 0
KGU1 090829Z 25007KT 20/M03 A301 RMK A01 T01971025  RH  022%=      5-min Rain = 0
KGU1 090830Z 25009KT 20/M03 A301 RMK A01 T01971025  RH  022%=      5-min Rain = 0
KGU1 090831Z 24009KT 20/M03 A301 RMK A01 T01971025  RH  022%=      5-min Rain = 0
KGU1 090832Z 23008KT 20/M03 A301 RMK A01 T01961025  RH  022%=      5-min Rain = 0
KGU1 090833Z 22008KT 20/M03 A301 RMK A01 T01951025  RH  023%=      5-min Rain = 0
KGU1 090834Z 21007KT 19/M02 A301 RMK A01 T01911024  RH  023%=      5-min Rain = 0
KGU1 090835Z 21008KT 19/M02 A301 RMK A01 T01881023  RH  024%=      5-min Rain = 0
KGU1 090836Z 21009KT 19/M02 A301 RMK A01 T01851023  RH  025%=      5-min Rain = 0
KGU1 090837Z 21009KT 18/M02 A301 RMK A01 T01831022  RH  025%=      5-min Rain = 0
KGU1 090838Z 22009KT 18/M02 A301 RMK A01 T01821022  RH  025%=      5-min Rain = 0
KGU1 090839Z 21010KT 18/M02 A301 RMK A01 T01791021  RH  026%=      5-min Rain = 0
KGU1 090840Z 21010KT 18/M02 A301 RMK A01 T01771020  RH  026%=      5-min Rain = 0
KGU1 090841Z 21009KT 18/M02 A301 RMK A01 T01751020  RH  027%=      5-min Rain = 0
KGU1 090842Z 21009KT 17/M02 A301 RMK A01 T01731020  RH  027%=      5-min Rain = 0
KGU1 090843Z 21008KT 17/M02 A3011 RMK A01 T01721020  RH  027%=      5-min Rain = 0
KGU1 090844Z 22008KT 17/M02 A301 RMK A01 T01711019  RH  027%=      5-min Rain = 0
KGU1 090845Z 22007KT 17/M02 A301 RMK A01 T01701019  RH  028%=      5-min Rain = 0
KGU1 090846Z 22008KT 17/M02 A301 RMK A01 T01691019  RH  028%=      5-min Rain = 0
KGU1 090847Z 22007KT 17/M02 A301 RMK A01 T01681020  RH  028%=      5-min Rain = 0
KGU1 090848Z 22007KT 17/M02 A301 RMK A01 T01691020  RH  028%=      5-min Rain = 0
KGU1 090849Z 22007KT 17/M02 A301 RMK A01 T01701019  RH  028%=      5-min Rain = 0
KGU1 090850Z 22007KT 17/M02 A301 RMK A01 T01701019  RH  028%=      5-min Rain = 0
KGU1 090851Z 22007KT 17/M02 A301 RMK A01 T01691019  RH  028%=      5-min Rain = 0
KGU1 090852Z 23007KT 17/M02 A301 RMK A01 T01691019  RH  028%=      5-min Rain = 0
KGU1 090853Z 23006KT 17/M02 A301 RMK A01 T01701020  RH  028%=      5-min Rain = 0
KGU1 090854Z 23009KT 17/M02 A301 RMK A01 T01711020  RH  027%=      5-min Rain = 0
KGU1 090855Z 22008KT 18/M02 A301 RMK A01 T01751024  RH  026%=      5-min Rain = 0
KGU1 090856Z 23008KT 18/M03 A301 RMK A01 T01791025  RH  025%=      5-min Rain = 0
KGU1 090857Z 23006KT 18/M03 A301 RMK A01 T01821025  RH  025%=      5-min Rain = 0
KGU1 090858Z 23007KT 18/M02 A301 RMK A01 T01841024  RH  024%=      5-min Rain = 0
KGU1 090859Z 23008KT 18/M02 A301 RMK A01 T01831023  RH  025%=      5-min Rain = 0
KGU1 090900Z 24008KT 18/M02 A301 RMK A01 T01831024  RH  025%=      5-min Rain = 0
KGU1 090901Z 24008KT 18/M03 A301 RMK A01 T01841026  RH  024%=      5-min Rain = 0
KGU1 090902Z 23007KT 19/M03 A301 RMK A01 T01861026  RH  024%=      5-min Rain = 0
KGU1 090903Z 24008KT 19/M03 A301 RMK A01 T01861027  RH  024%=      5-min Rain = 0
KGU1 090904Z 23008KT 19/M03 A301 RMK A01 T01871026  RH  024%=      5-min Rain = 0
KGU1 090905Z 23008KT 19/M03 A301 RMK A01 T01871027  RH  023%=      5-min Rain = 0
KGU1 090906Z 23007KT 19/M03 A301 RMK A01 T01871026  RH  024%=      5-min Rain = 0
KGU1 090907Z 23008KT 19/M03 A301 RMK A01 T01871027  RH  023%=      5-min Rain = 0
KGU1 090908Z 24006KT 19/M03 A301 RMK A01 T01871026  RH  024%=      5-min Rain = 0
KGU1 090909Z 23008KT 19/M03 A301 RMK A01 T01871027  RH  023%=      5-min Rain = 0
KGU1 090910Z 24009KT 19/M03 A301 RMK A01 T01881028  RH  023%=      5-min Rain = 0
KGU1 090911Z 24010KT 19/M03 A301 RMK A01 T01891029  RH  023%=      5-min Rain = 0
KGU1 090912Z 24010KT 19/M03 A301 RMK A01 T01911029  RH  022%=      5-min Rain = 0
KGU1 090913Z 24012KT 19/M03 A301 RMK A01 T01931029  RH  022%=      5-min Rain = 0
KGU1 090914Z 24009KT 19/M03 A301 RMK A01 T01941029  RH  022%=      5-min Rain = 0
KGU1 090915Z 23010G15KT 19/M03 A301 RMK A01 T01941028  RH  022%=      5-min Rain = 0
KGU1 090916Z 25009KT 19/M03 A301 RMK A01 T01941028  RH  022%=      5-min Rain = 0
KGU1 090917Z 25010KT 20/M03 A301 RMK A01 T01951028  RH  022%=      5-min Rain = 0
KGU1 090918Z 24007KT 20/M03 A301 RMK A01 T01951028  RH  022%=      5-min Rain = 0
KGU1 090919Z 24007KT 19/M03 A301 RMK A01 T01941027  RH  022%=      5-min Rain = 0
KGU1 090920Z 24007KT 19/M03 A301 RMK A01 T01931026  RH  023%=      5-min Rain = 0
KGU1 090921Z 24007KT 19/M03 A301 RMK A01 T01921026  RH  023%=      5-min Rain = 0
KGU1 090922Z 24009KT 19/M03 A301 RMK A01 T01921026  RH  023%=      5-min Rain = 0
KGU1 090923Z 24009KT 19/M03 A301 RMK A01 T01931026  RH  023%=      5-min Rain = 0
KGU1 090924Z 23009KT 19/M03 A301 RMK A01 T01941026  RH  023%=      5-min Rain = 0
KGU1 090925Z 24009KT 19/M03 A3009 RMK A01 T01941026  RH  023%=      5-min Rain = 0
KGU1 090926Z 24010KT 19/M03 A3009 RMK A01 T01941026  RH  023%=      5-min Rain = 0
KGU1 090927Z 24010KT 20/M03 A3009 RMK A01 T01951025  RH  023%=      5-min Rain = 0
KGU1 090928Z 24010KT 20/M03 A3009 RMK A01 T01951025  RH  023%=      5-min Rain = 0
KGU1 090929Z 24009KT 20/M02 A3009 RMK A01 T01951024  RH  023%=      5-min Rain = 0
KGU1 090930Z 24009KT 20/M02 A3009 RMK A01 T01951024  RH  023%=      5-min Rain = 0
KGU1 090931Z 23008KT 20/M02 A3009 RMK A01 T01951024  RH  023%=      5-min Rain = 0
KGU1 090932Z 23012KT 19/M03 A3009 RMK A01 T01941025  RH  023%=      5-min Rain = 0
KGU1 090933Z 24008KT 19/M03 A3009 RMK A01 T01941025  RH  023%=      5-min Rain = 0
KGU1 090934Z 23009KT 19/M03 A3009 RMK A01 T01941025  RH  023%=      5-min Rain = 0
KGU1 090935Z 24010KT 19/M03 A3009 RMK A01 T01931025  RH  023%=      5-min Rain = 0
KGU1 090936Z 24011KT 19/M03 A3009 RMK A01 T01931025  RH  023%=      5-min Rain = 0
KGU1 090937Z 25011KT 20/M02 A3009 RMK A01 T01951024  RH  023%=      5-min Rain = 0
KGU1 090938Z 25009KT 20/M02 A3009 RMK A01 T01951023  RH  023%=      5-min Rain = 0
KGU1 090939Z 25009KT 19/M02 A3009 RMK A01 T01941022  RH  023%=      5-min Rain = 0
KGU1 090940Z 24008KT 19/M02 A3009 RMK A01 T01941021  RH  023%=      5-min Rain = 0
KGU1 090941Z 25010G17KT 19/M02 A3009 RMK A01 T01941020  RH  024%=      5-min Rain = 0
KGU1 090942Z 24012KT 19/M02 A3009 RMK A01 T01941021  RH  023%=      5-min Rain = 0
KGU1 090943Z 25009KT 20/M02 A3009 RMK A01 T01961022  RH  023%=      5-min Rain = 0
KGU1 090944Z 24008KT 20/M02 A3009 RMK A01 T01961020  RH  023%=      5-min Rain = 0
KGU1 090945Z 24009G14KT 20/M02 A3009 RMK A01 T01961020  RH  023%=      5-min Rain = 0
KGU1 090946Z 25010KT 20/M02 A3009 RMK A01 T01951020  RH  023%=      5-min Rain = 0
KGU1 090947Z 23008KT 20/M02 A3009 RMK A01 T01951020  RH  024%=      5-min Rain = 0
KGU1 090948Z 24011KT 20/M02 A3009 RMK A01 T01951020  RH  023%=      5-min Rain = 0
KGU1 090949Z 23009KT 20/M02 A3009 RMK A01 T01951022  RH  023%=      5-min Rain = 0
KGU1 090950Z 23008KT 19/M02 A3009 RMK A01 T01941022  RH  023%=      5-min Rain = 0
KGU1 090951Z 24009G14KT 19/M02 A3009 RMK A01 T01941022  RH  023%=      5-min Rain = 0
KGU1 090952Z 24013KT 19/M02 A3009 RMK A01 T01941024  RH  023%=      5-min Rain = 0
KGU1 090953Z 24012KT 20/M02 A3009 RMK A01 T01951023  RH  023%=      5-min Rain = 0
KGU1 090954Z 24009KT 20/M02 A3009 RMK A01 T01951024  RH  023%=      5-min Rain = 0
KGU1 090955Z 24008KT 20/M02 A3009 RMK A01 T01951024  RH  023%=      5-min Rain = 0
KGU1 090956Z 23009KT 19/M02 A3009 RMK A01 T01941023  RH  023%=      5-min Rain = 0
KGU1 090957Z 24012KT 19/M02 A3009 RMK A01 T01941024  RH  023%=      5-min Rain = 0
KGU1 090958Z 24013KT 20/M02 A3009 RMK A01 T01951024  RH  023%=      5-min Rain = 0
KGU1 090959Z 26012G17KT 20/M02 A3009 RMK A01 T01951023  RH  023%=      5-min Rain = 0
KGU1 091000Z 26010KT 20/M02 A3009 RMK A01 T01951022  RH  023%=      5-min Rain = 0
KGU1 091001Z 26010G16KT 20/M02 A3009 RMK A01 T01951022  RH  023%=      5-min Rain = 0
KGU1 091002Z 25009KT 20/M02 A3009 RMK A01 T01951022  RH  023%=      5-min Rain = 0
KGU1 091003Z 26010KT 20/M02 A3009 RMK A01 T01951022  RH  023%=      5-min Rain = 0
KGU1 091004Z 24010KT 20/M02 A3009 RMK A01 T01951023  RH  023%=      5-min Rain = 0
KGU1 091005Z 25011KT 20/M02 A3009 RMK A01 T01951024  RH  023%=      5-min Rain = 0
KGU1 091006Z 24012KT 20/M02 A3009 RMK A01 T01951024  RH  023%=      5-min Rain = 0
KGU1 091007Z 24010KT 20/M02 A3009 RMK A01 T01951024  RH  023%=      5-min Rain = 0
KGU1 091008Z 25010KT 20/M02 A3009 RMK A01 T01951024  RH  023%=      5-min Rain = 0
KGU1 091009Z 25011KT 19/M02 A3009 RMK A01 T01941023  RH  023%=      5-min Rain = 0
KGU1 091010Z 23012KT 19/M02 A3009 RMK A01 T01941024  RH  023%=      5-min Rain = 0
KGU1 091011Z 21010KT 19/M02 A3009 RMK A01 T01931022  RH  023%=      5-min Rain = 0
KGU1 091012Z 22007KT 19/M02 A3009 RMK A01 T01871021  RH  025%=      5-min Rain = 0
KGU1 091013Z 22007KT 18/M02 A3009 RMK A01 T01831021  RH  025%=      5-min Rain = 0
KGU1 091014Z 22008KT 18/M02 A3009 RMK A01 T01811022  RH  025%=      5-min Rain = 0
KGU1 091015Z 22007KT 18/M02 A3009 RMK A01 T01811022  RH  025%=      5-min Rain = 0
KGU1 091016Z 21006KT 18/M02 A3009 RMK A01 T01811021  RH  025%=      5-min Rain = 0
KGU1 091017Z 22007KT 18/M02 A3009 RMK A01 T01801020  RH  026%=      5-min Rain = 0
KGU1 091018Z 22007KT 18/M02 A3009 RMK A01 T01771020  RH  026%=      5-min Rain = 0
KGU1 091019Z 23008KT 18/M02 A3009 RMK A01 T01751019  RH  027%=      5-min Rain = 0
KGU1 091020Z 24009KT 18/M02 A3009 RMK A01 T01751021  RH  026%=      5-min Rain = 0
KGU1 091021Z 23009KT 18/M02 A3009 RMK A01 T01771022  RH  026%=      5-min Rain = 0
KGU1 091022Z 24008KT 18/M02 A3009 RMK A01 T01771021  RH  026%=      5-min Rain = 0
KGU1 091023Z 24008KT 18/M02 A3009 RMK A01 T01771021  RH  026%=      5-min Rain = 0
KGU1 091024Z 23007KT 18/M02 A3009 RMK A01 T01781022  RH  026%=      5-min Rain = 0
KGU1 091025Z 22006KT 18/M02 A3009 RMK A01 T01781021  RH  026%=      5-min Rain = 0
KGU1 091026Z 22006KT 18/M02 A3009 RMK A01 T01781021  RH  026%=      5-min Rain = 0
KGU1 091027Z 22006KT 18/M02 A3009 RMK A01 T01771020  RH  026%=      5-min Rain = 0
KGU1 091028Z 22006KT 18/M02 A3009 RMK A01 T01761020  RH  026%=      5-min Rain = 0
KGU1 091029Z 21006KT 18/M02 A3009 RMK A01 T01751020  RH  027%=      5-min Rain = 0
KGU1 091030Z 21010KT 17/M02 A3009 RMK A01 T01741019  RH  027%=      5-min Rain = 0
KGU1 091031Z 21010KT 17/M02 A3009 RMK A01 T01711019  RH  028%=      5-min Rain = 0
KGU1 091032Z 20011KT 17/M02 A3009 RMK A01 T01681018  RH  028%=      5-min Rain = 0
KGU1 091033Z 21012KT 17/M02 A301 RMK A01 T01651018  RH  029%=      5-min Rain = 0
KGU1 091034Z 21011KT 16/M02 A301 RMK A01 T01631018  RH  029%=      5-min Rain = 0
KGU1 091035Z 20010KT 16/M02 A301 RMK A01 T01621017  RH  029%=      5-min Rain = 0
KGU1 091036Z 20011KT 16/M02 A301 RMK A01 T01611017  RH  030%=      5-min Rain = 0
KGU1 091037Z 20010KT 16/M02 A301 RMK A01 T01601017  RH  030%=      5-min Rain = 0
KGU1 091038Z 20011KT 16/M02 A301 RMK A01 T01591017  RH  030%=      5-min Rain = 0
KGU1 091039Z 20012KT 16/M02 A301 RMK A01 T01581017  RH  030%=      5-min Rain = 0
KGU1 091040Z 20012KT 16/M02 A301 RMK A01 T01571017  RH  031%=      5-min Rain = 0
KGU1 091041Z 21011KT 16/M02 A301 RMK A01 T01571017  RH  031%=      5-min Rain = 0
KGU1 091042Z 21012KT 16/M02 A301 RMK A01 T01561016  RH  031%=      5-min Rain = 0
KGU1 091043Z 21010KT 16/M02 A301 RMK A01 T01551016  RH  031%=      5-min Rain = 0
KGU1 091044Z 21012KT 15/M02 A301 RMK A01 T01541016  RH  031%=      5-min Rain = 0
KGU1 091045Z 22010KT 15/M02 A301 RMK A01 T01531016  RH  032%=      5-min Rain = 0
KGU1 091046Z 21009KT 15/M02 A301 RMK A01 T01531015  RH  032%=      5-min Rain = 0
KGU1 091047Z 22009KT 15/M01 A301 RMK A01 T01521014  RH  032%=      5-min Rain = 0
KGU1 091048Z 21008KT 15/M02 A301 RMK A01 T01511015  RH  032%=      5-min Rain = 0
KGU1 091049Z 22010KT 15/M02 A301 RMK A01 T01511015  RH  032%=      5-min Rain = 0
KGU1 091050Z 22008KT 15/M01 A301 RMK A01 T01511014  RH  032%=      5-min Rain = 0
KGU1 091051Z 22009KT 15/M01 A301 RMK A01 T01511014  RH  032%=      5-min Rain = 0
KGU1 091052Z 22010KT 15/M01 A301 RMK A01 T01511014  RH  032%=      5-min Rain = 0
KGU1 091053Z 22009KT 15/M01 A301 RMK A01 T01511014  RH  032%=      5-min Rain = 0
KGU1 091054Z 21010KT 15/M01 A3011 RMK A01 T01521014  RH  032%=      5-min Rain = 0
KGU1 091055Z 21011KT 15/M01 A3011 RMK A01 T01521014  RH  032%=      5-min Rain = 0
KGU1 091056Z 21010KT 15/M02 A3011 RMK A01 T01521015  RH  032%=      5-min Rain = 0
KGU1 091057Z 21010KT 15/M01 A3011 RMK A01 T01531014  RH  032%=      5-min Rain = 0
KGU1 091058Z 21011KT 15/M01 A3011 RMK A01 T01531014  RH  032%=      5-min Rain = 0
KGU1 091059Z 22010KT 15/M01 A3011 RMK A01 T01531014  RH  032%=      5-min Rain = 0
KGU1 091100Z 22009KT 15/M01 A3011 RMK A01 T01531014  RH  032%=      5-min Rain = 0
KGU1 091101Z 22009KT 15/M01 A3011 RMK A01 T01531014  RH  032%=      5-min Rain = 0
KGU1 091102Z 23008KT 15/M01 A3011 RMK A01 T01531014  RH  032%=      5-min Rain = 0
KGU1 091103Z 24010KT 15/M01 A3011 RMK A01 T01531014  RH  032%=      5-min Rain = 0
KGU1 091104Z 24009KT 15/M02 A3011 RMK A01 T01541015  RH  032%=      5-min Rain = 0
KGU1 091105Z 24009KT 16/M02 A3011 RMK A01 T01551015  RH  031%=      5-min Rain = 0
KGU1 091106Z 23009KT 16/M02 A3011 RMK A01 T01551015  RH  031%=      5-min Rain = 0
KGU1 091107Z 23008KT 16/M01 A3011 RMK A01 T01551014  RH  032%=      5-min Rain = 0
KGU1 091108Z 23008KT 15/M02 A3011 RMK A01 T01541015  RH  032%=      5-min Rain = 0
KGU1 091109Z 23007KT 15/M01 A3011 RMK A01 T01541014  RH  032%=      5-min Rain = 0
KGU1 091110Z 23008KT 16/M01 A3011 RMK A01 T01551014  RH  032%=      5-min Rain = 0
KGU1 091111Z 24009KT 16/M01 A3011 RMK A01 T01551014  RH  032%=      5-min Rain = 0
KGU1 091112Z 24010KT 16/M02 A3011 RMK A01 T01561015  RH  031%=      5-min Rain = 0
KGU1 091113Z 24010KT 16/M02 A3011 RMK A01 T01571015  RH  031%=      5-min Rain = 0
KGU1 091114Z 24011KT 16/M02 A3011 RMK A01 T01591015  RH  031%=      5-min Rain = 0
KGU1 091115Z 25011KT 16/M02 A3011 RMK A01 T01601015  RH  030%=      5-min Rain = 0
KGU1 091116Z 25012KT 16/M02 A3011 RMK A01 T01601016  RH  030%=      5-min Rain = 0
KGU1 091117Z 25010KT 16/M02 A3011 RMK A01 T01611016  RH  030%=      5-min Rain = 0
KGU1 091118Z 25010KT 16/M02 A3011 RMK A01 T01611015  RH  030%=      5-min Rain = 0
KGU1 091119Z 25010KT 16/M02 A3011 RMK A01 T01611015  RH  030%=      5-min Rain = 0
KGU1 091120Z 25011KT 16/M02 A3011 RMK A01 T01611015  RH  030%=      5-min Rain = 0
KGU1 091121Z 25010KT 16/M02 A3011 RMK A01 T01611016  RH  030%=      5-min Rain = 0
KGU1 091122Z 25009KT 16/M02 A3011 RMK A01 T01621016  RH  030%=      5-min Rain = 0
KGU1 091123Z 25010KT 16/M02 A3011 RMK A01 T01621015  RH  030%=      5-min Rain = 0
KGU1 091124Z 25012KT 16/M02 A3011 RMK A01 T01631016  RH  030%=      5-min Rain = 0
KGU1 091125Z 24011KT 16/M02 A3011 RMK A01 T01641017  RH  029%=      5-min Rain = 0
KGU1 091126Z 24009KT 17/M02 A301 RMK A01 T01661017  RH  029%=      5-min Rain = 0
KGU1 091127Z 24011KT 17/M02 A301 RMK A01 T01661017  RH  029%=      5-min Rain = 0
KGU1 091128Z 25010KT 17/M02 A301 RMK A01 T01681018  RH  028%=      5-min Rain = 0
KGU1 091129Z 25010KT 17/M02 A301 RMK A01 T01691018  RH  028%=      5-min Rain = 0
KGU1 091130Z 25009KT 17/M02 A301 RMK A01 T01701018  RH  028%=      5-min Rain = 0
KGU1 091131Z 25010KT 17/M02 A301 RMK A01 T01711018  RH  028%=      5-min Rain = 0
KGU1 091132Z 25009KT 17/M02 A301 RMK A01 T01731018  RH  027%=      5-min Rain = 0
KGU1 091133Z 25010KT 17/M02 A301 RMK A01 T01741017  RH  027%=      5-min Rain = 0
KGU1 091134Z 24013KT 18/M02 A301 RMK A01 T01761015  RH  027%=      5-min Rain = 0
KGU1 091135Z 23012KT 18/M02 A301 RMK A01 T01781015  RH  027%=      5-min Rain = 0
KGU1 091136Z 23010G15KT 18/M02 A301 RMK A01 T01791015  RH  027%=      5-min Rain = 0
KGU1 091137Z 23009KT 18/M02 A301 RMK A01 T01791015  RH  027%=      5-min Rain = 0
KGU1 091138Z 23011KT 18/M02 A301 RMK A01 T01791016  RH  027%=      5-min Rain = 0
KGU1 091139Z 23010KT 18/M02 A301 RMK A01 T01791017  RH  027%=      5-min Rain = 0
KGU1 091140Z 23010KT 18/M02 A301 RMK A01 T01791017  RH  027%=      5-min Rain = 0
KGU1 091141Z 24010KT 18/M02 A301 RMK A01 T01791015  RH  027%=      5-min Rain = 0
KGU1 091142Z 24012KT 18/M01 A301 RMK A01 T01791013  RH  027%=      5-min Rain = 0
KGU1 091143Z 23015KT 18/M01 A301 RMK A01 T01791012  RH  028%=      5-min Rain = 0
KGU1 091144Z 23010KT 18/M01 A301 RMK A01 T01801012  RH  027%=      5-min Rain = 0
KGU1 091145Z 23011KT 18/M01 A301 RMK A01 T01791012  RH  028%=      5-min Rain = 0
KGU1 091146Z 23011KT 18/M01 A301 RMK A01 T01791013  RH  027%=      5-min Rain = 0
KGU1 091147Z 23013KT 18/M01 A301 RMK A01 T01791012  RH  028%=      5-min Rain = 0
KGU1 091148Z 23010KT 18/M01 A301 RMK A01 T01791012  RH  028%=      5-min Rain = 0
KGU1 091149Z 23011KT 18/M01 A301 RMK A01 T01781012  RH  028%=      5-min Rain = 0
KGU1 091150Z 23011KT 18/M01 A301 RMK A01 T01781012  RH  028%=      5-min Rain = 0
KGU1 091151Z 23008KT 18/M01 A301 RMK A01 T01781011  RH  028%=      5-min Rain = 0
KGU1 091152Z 23010KT 18/M01 A301 RMK A01 T01771011  RH  028%=      5-min Rain = 0
KGU1 091153Z 24010KT 18/M01 A301 RMK A01 T01761011  RH  028%=      5-min Rain = 0
KGU1 091154Z 24012KT 18/M01 A301 RMK A01 T01761011  RH  028%=      5-min Rain = 0
KGU1 091155Z 23012KT 18/M01 A301 RMK A01 T01771011  RH  028%=      5-min Rain = 0
KGU1 091156Z 24011G16KT 18/M01 A301 RMK A01 T01761011  RH  028%=      5-min Rain = 0
KGU1 091157Z 24012KT 18/M01 A301 RMK A01 T01761011  RH  028%=      5-min Rain = 0
KGU1 091158Z 24010KT 18/M01 A301 RMK A01 T01761010  RH  029%=      5-min Rain = 0
KGU1 091159Z 23009KT 18/M01 A301 RMK A01 T01761009  RH  029%=      5-min Rain = 0
KGU1 091200Z 24008KT 18/M01 A301 RMK A01 T01751008  RH  029%=      5-min Rain = 0
KGU1 091201Z 24011KT 17/M01 A301 RMK A01 T01741006  RH  030%=      5-min Rain = 0
KGU1 091202Z 24011G17KT 18/M01 A301 RMK A01 T01751005  RH  030%=      5-min Rain = 0
KGU1 091203Z 24012KT 18/M01 A301 RMK A01 T01761006  RH  029%=      5-min Rain = 0
KGU1 091204Z 24012KT 18/M01 A301 RMK A01 T01771006  RH  029%=      5-min Rain = 0
KGU1 091205Z 24010KT 18/M01 A301 RMK A01 T01771005  RH  029%=      5-min Rain = 0
KGU1 091206Z 24010KT 18/M01 A301 RMK A01 T01761005  RH  030%=      5-min Rain = 0
KGU1 091207Z 24013G18KT 18/M01 A301 RMK A01 T01761005  RH  030%=      5-min Rain = 0
KGU1 091208Z 24013KT 18/M01 A301 RMK A01 T01771005  RH  030%=      5-min Rain = 0
KGU1 091209Z 24013KT 18/M00 A301 RMK A01 T01771004  RH  030%=      5-min Rain = 0
KGU1 091210Z 24013G18KT 18/M00 A301 RMK A01 T01781004  RH  029%=      5-min Rain = 0
KGU1 091211Z 24014G19KT 18/M00 A301 RMK A01 T01781004  RH  029%=      5-min Rain = 0
KGU1 091212Z 23014G20KT 18/M00 A301 RMK A01 T01781004  RH  029%=      5-min Rain = 0
KGU1 091213Z 24015G21KT 18/M00 A301 RMK A01 T01791004  RH  029%=      5-min Rain = 0
KGU1 091214Z 24014G20KT 18/M00 A301 RMK A01 T01791004  RH  029%=      5-min Rain = 0
KGU1 091215Z 24015KT 18/M00 A301 RMK A01 T01781004  RH  029%=      5-min Rain = 0
KGU1 091216Z 24016KT 18/M00 A301 RMK A01 T01781004  RH  029%=      5-min Rain = 0
KGU1 091217Z 24013G18KT 18/M00 A301 RMK A01 T01791004  RH  029%=      5-min Rain = 0
KGU1 091218Z 24013KT 18/M00 A301 RMK A01 T01781004  RH  029%=      5-min Rain = 0
KGU1 091219Z 24015G21KT 18/M00 A301 RMK A01 T01781004  RH  030%=      5-min Rain = 0
KGU1 091220Z 24015KT 18/M00 A301 RMK A01 T01781004  RH  030%=      5-min Rain = 0
KGU1 091221Z 24015KT 18/M00 A301 RMK A01 T01781003  RH  030%=      5-min Rain = 0
KGU1 091222Z 25014KT 18/M00 A301 RMK A01 T01781003  RH  030%=      5-min Rain = 0
KGU1 091223Z 25016G21KT 18/M00 A301 RMK A01 T01791002  RH  030%=      5-min Rain = 0
KGU1 091224Z 25017KT 18/M00 A301 RMK A01 T01801002  RH  030%=      5-min Rain = 0
KGU1 091225Z 24014KT 18/M00 A301 RMK A01 T01811002  RH  029%=      5-min Rain = 0
KGU1 091226Z 24014KT 18/M00 A301 RMK A01 T01811002  RH  029%=      5-min Rain = 0
KGU1 091227Z 25016KT 18/M00 A301 RMK A01 T01811002  RH  029%=      5-min Rain = 0
KGU1 091228Z 24016KT 18/M00 A301 RMK A01 T01821002  RH  029%=      5-min Rain = 0
KGU1 091229Z 25016KT 18/M00 A301 RMK A01 T01821001  RH  029%=      5-min Rain = 0
KGU1 091230Z 23013G18KT 18/M00 A301 RMK A01 T01821002  RH  029%=      5-min Rain = 0
KGU1 091231Z 23015KT 18/M00 A301 RMK A01 T01811002  RH  029%=      5-min Rain = 0
KGU1 091232Z 23016KT 18/M00 A301 RMK A01 T01801003  RH  029%=      5-min Rain = 0
KGU1 091233Z 23015G22KT 18/M00 A301 RMK A01 T01801004  RH  029%=      5-min Rain = 0
KGU1 091234Z 24015KT 18/M00 A301 RMK A01 T01801004  RH  029%=      5-min Rain = 0
KGU1 091235Z 23017KT 18/M00 A301 RMK A01 T01811004  RH  029%=      5-min Rain = 0
KGU1 091236Z 23015G21KT 18/M00 A301 RMK A01 T01811004  RH  029%=      5-min Rain = 0
KGU1 091237Z 23012G19KT 18/M00 A301 RMK A01 T01801004  RH  029%=      5-min Rain = 0
KGU1 091238Z 24017KT 18/M00 A301 RMK A01 T01801004  RH  029%=      5-min Rain = 0
KGU1 091239Z 25018G24KT 18/M00 A301 RMK A01 T01801004  RH  029%=      5-min Rain = 0
KGU1 091240Z 25018KT 18/M01 A301 RMK A01 T01801005  RH  029%=      5-min Rain = 0
KGU1 091241Z 24014G19KT 18/M01 A301 RMK A01 T01801005  RH  029%=      5-min Rain = 0
KGU1 091242Z 24013G21KT 18/M01 A301 RMK A01 T01801005  RH  029%=      5-min Rain = 0
KGU1 091243Z 24013G18KT 18/M01 A301 RMK A01 T01791005  RH  029%=      5-min Rain = 0
KGU1 091244Z 25018KT 18/M01 A301 RMK A01 T01791006  RH  029%=      5-min Rain = 0
KGU1 091245Z 24019KT 18/M01 A301 RMK A01 T01791007  RH  029%=      5-min Rain = 0
KGU1 091246Z 24018KT 18/M01 A301 RMK A01 T01791007  RH  029%=      5-min Rain = 0
KGU1 091247Z 24018KT 18/M01 A301 RMK A01 T01791007  RH  029%=      5-min Rain = 0
KGU1 091248Z 24016KT 18/M01 A301 RMK A01 T01791007  RH  029%=      5-min Rain = 0
KGU1 091249Z 25015KT 18/M01 A301 RMK A01 T01801007  RH  029%=      5-min Rain = 0
KGU1 091250Z 25016KT 18/M01 A301 RMK A01 T01791007  RH  029%=      5-min Rain = 0
KGU1 091251Z 25015KT 18/M01 A301 RMK A01 T01791007  RH  029%=      5-min Rain = 0
KGU1 091252Z 25014G19KT 18/M01 A301 RMK A01 T01801007  RH  029%=      5-min Rain = 0
KGU1 091253Z 24014G19KT 18/M01 A301 RMK A01 T01801007  RH  028%=      5-min Rain = 0
KGU1 091254Z 25014KT 18/M01 A301 RMK A01 T01801008  RH  028%=      5-min Rain = 0
KGU1 091255Z 25018KT 18/M01 A301 RMK A01 T01801009  RH  028%=      5-min Rain = 0
KGU1 091256Z 25019KT 18/M01 A3011 RMK A01 T01811009  RH  028%=      5-min Rain = 0
KGU1 091257Z 25012KT 18/M01 A3011 RMK A01 T01811008  RH  028%=      5-min Rain = 0
KGU1 091258Z 24012KT 18/M01 A3011 RMK A01 T01811006  RH  028%=      5-min Rain = 0
KGU1 091259Z 25014KT 18/M01 A3011 RMK A01 T01801005  RH  029%=      5-min Rain = 0
KGU1 091300Z 24013G18KT 18/M01 A3011 RMK A01 T01801005  RH  029%=      5-min Rain = 0
KGU1 091301Z 24019KT 18/M01 A3011 RMK A01 T01801006  RH  029%=      5-min Rain = 0
KGU1 091302Z 25015KT 18/M01 A3011 RMK A01 T01811007  RH  028%=      5-min Rain = 0
KGU1 091303Z 25015KT 18/M01 A3011 RMK A01 T01811008  RH  028%=      5-min Rain = 0
KGU1 091304Z 24014KT 18/M01 A3011 RMK A01 T01811007  RH  028%=      5-min Rain = 0
KGU1 091305Z 24015G20KT 18/M01 A3011 RMK A01 T01811006  RH  029%=      5-min Rain = 0
KGU1 091306Z 24015KT 18/M01 A3011 RMK A01 T01811005  RH  029%=      5-min Rain = 0
KGU1 091307Z 24016G21KT 18/M00 A3011 RMK A01 T01811004  RH  029%=      5-min Rain = 0
KGU1 091308Z 25019G25KT 18/M01 A3011 RMK A01 T01811007  RH  028%=      5-min Rain = 0
KGU1 091309Z 25014G19KT 18/M01 A3012 RMK A01 T01821007  RH  028%=      5-min Rain = 0
KGU1 091310Z 24015KT 18/M01 A3012 RMK A01 T01821006  RH  028%=      5-min Rain = 0
KGU1 091311Z 24014G19KT 18/M01 A3012 RMK A01 T01821006  RH  028%=      5-min Rain = 0
KGU1 091312Z 24015KT 18/M01 A3012 RMK A01 T01811007  RH  028%=      5-min Rain = 0
KGU1 091313Z 24015KT 18/M01 A3012 RMK A01 T01811007  RH  028%=      5-min Rain = 0
KGU1 091314Z 24014KT 18/M01 A3013 RMK A01 T01811008  RH  028%=      5-min Rain = 0
KGU1 091315Z 25013KT 18/M01 A3013 RMK A01 T01811008  RH  028%=      5-min Rain = 0
KGU1 091316Z 25014G19KT 18/M01 A3012 RMK A01 T01811008  RH  028%=      5-min Rain = 0
KGU1 091317Z 24012KT 18/M01 A3013 RMK A01 T01811007  RH  028%=      5-min Rain = 0
KGU1 091318Z 24009KT 18/M01 A3013 RMK A01 T01811007  RH  028%=      5-min Rain = 0
KGU1 091319Z 23010KT 18/M01 A3013 RMK A01 T01811006  RH  028%=      5-min Rain = 0
KGU1 091320Z 23014KT 18/M01 A3013 RMK A01 T01811007  RH  028%=      5-min Rain = 0
KGU1 091321Z 24011KT 18/M01 A3013 RMK A01 T01811007  RH  028%=      5-min Rain = 0
KGU1 091322Z 24013KT 18/M01 A3013 RMK A01 T01811007  RH  028%=      5-min Rain = 0
KGU1 091323Z 24014KT 18/M01 A3013 RMK A01 T01811007  RH  028%=      5-min Rain = 0
KGU1 091324Z 24011KT 18/M01 A3013 RMK A01 T01811007  RH  028%=      5-min Rain = 0
KGU1 091325Z 24012KT 18/M01 A3013 RMK A01 T01811007  RH  028%=      5-min Rain = 0
KGU1 091326Z 25014KT 18/M01 A3013 RMK A01 T01811008  RH  028%=      5-min Rain = 0
KGU1 091327Z 23011G17KT 18/M01 A3013 RMK A01 T01811011  RH  028%=      5-min Rain = 0
KGU1 091328Z 24012KT 18/M01 A3013 RMK A01 T01811011  RH  027%=      5-min Rain = 0
KGU1 091329Z 24015KT 18/M01 A3013 RMK A01 T01811012  RH  027%=      5-min Rain = 0
KGU1 091330Z 24011KT 18/M01 A3013 RMK A01 T01811011  RH  027%=      5-min Rain = 0
KGU1 091331Z 24012KT 18/M01 A3013 RMK A01 T01811010  RH  028%=      5-min Rain = 0
KGU1 091332Z 24013KT 18/M01 A3013 RMK A01 T01811011  RH  028%=      5-min Rain = 0
KGU1 091333Z 25011KT 18/M01 A3013 RMK A01 T01811010  RH  028%=      5-min Rain = 0
KGU1 091334Z 25012G19KT 18/M01 A3013 RMK A01 T01811010  RH  028%=      5-min Rain = 0
KGU1 091335Z 24014G19KT 18/M01 A3013 RMK A01 T01801011  RH  028%=      5-min Rain = 0
KGU1 091336Z 25012KT 18/M01 A3013 RMK A01 T01801011  RH  028%=      5-min Rain = 0
KGU1 091337Z 27011KT 18/M01 A3013 RMK A01 T01801010  RH  028%=      5-min Rain = 0
KGU1 091338Z 27013KT 18/M01 A3013 RMK A01 T01791008  RH  028%=      5-min Rain = 0
KGU1 091339Z 26010KT 18/M01 A3013 RMK A01 T01791009  RH  028%=      5-min Rain = 0
KGU1 091340Z 26011KT 18/M01 A3013 RMK A01 T01781009  RH  028%=      5-min Rain = 0
KGU1 091341Z 26010KT 18/M01 A3013 RMK A01 T01791008  RH  028%=      5-min Rain = 0
KGU1 091342Z 26014KT 18/M01 A3013 RMK A01 T01791009  RH  028%=      5-min Rain = 0
KGU1 091343Z 27009KT 18/M01 A3013 RMK A01 T01791010  RH  028%=      5-min Rain = 0
KGU1 091344Z 28011KT 18/M01 A3013 RMK A01 T01791011  RH  028%=      5-min Rain = 0
KGU1 091345Z 27010KT 18/M01 A3013 RMK A01 T01781010  RH  028%=      5-min Rain = 0
KGU1 091346Z 27011G16KT 18/M01 A3013 RMK A01 T01781012  RH  028%=      5-min Rain = 0
KGU1 091347Z 26010KT 18/M01 A3013 RMK A01 T01781012  RH  028%=      5-min Rain = 0
KGU1 091348Z 26011KT 18/M01 A3013 RMK A01 T01771011  RH  028%=      5-min Rain = 0
KGU1 091349Z 28010G20KT 18/M01 A3013 RMK A01 T01771011  RH  028%=      5-min Rain = 0
KGU1 091350Z 26016G21KT 18/M01 A3013 RMK A01 T01771011  RH  028%=      5-min Rain = 0
KGU1 091351Z 26014KT 18/M01 A3013 RMK A01 T01771013  RH  028%=      5-min Rain = 0
KGU1 091352Z 25015G22KT 18/M02 A3013 RMK A01 T01761015  RH  027%=      5-min Rain = 0
KGU1 091353Z 24019KT 18/M02 A3013 RMK A01 T01771015  RH  027%=      5-min Rain = 0
KGU1 091354Z 25015KT 18/M02 A3013 RMK A01 T01761015  RH  028%=      5-min Rain = 0
KGU1 091355Z 25015KT 18/M01 A3013 RMK A01 T01751014  RH  028%=      5-min Rain = 0
KGU1 091356Z 25014G19KT 18/M01 A3013 RMK A01 T01751012  RH  028%=      5-min Rain = 0
KGU1 091357Z 25013KT 18/M01 A3013 RMK A01 T01751010  RH  029%=      5-min Rain = 0
KGU1 091358Z 25014KT 18/M01 A3013 RMK A01 T01751010  RH  029%=      5-min Rain = 0
KGU1 091359Z 26012KT 18/M01 A3013 RMK A01 T01761009  RH  029%=      5-min Rain = 0
KGU1 091400Z 25013G18KT 18/M01 A3013 RMK A01 T01761008  RH  029%=      5-min Rain = 0
KGU1 091401Z 26015KT 18/M01 A3013 RMK A01 T01761008  RH  029%=      5-min Rain = 0
KGU1 091402Z 26014KT 18/M01 A3013 RMK A01 T01761009  RH  029%=      5-min Rain = 0
KGU1 091403Z 27014KT 18/M01 A3013 RMK A01 T01761007  RH  029%=      5-min Rain = 0
KGU1 091404Z 26015KT 18/M01 A3013 RMK A01 T01761006  RH  029%=      5-min Rain = 0
KGU1 091405Z 28019KT 18/M01 A3013 RMK A01 T01751006  RH  029%=      5-min Rain = 0
KGU1 091406Z 26014G19KT 18/M00 A3013 RMK A01 T01751004  RH  030%=      5-min Rain = 0
KGU1 091407Z 25012KT 18/00 A3013 RMK A01 T01750003  RH  032%=      5-min Rain = 0
KGU1 091408Z 24012KT 17/01 A3013 RMK A01 T01740007  RH  033%=      5-min Rain = 0
KGU1 091409Z 25015KT 17/01 A3013 RMK A01 T01740005  RH  032%=      5-min Rain = 0
KGU1 091410Z 26012G17KT 17/01 A3013 RMK A01 T01740005  RH  032%=      5-min Rain = 0
KGU1 091411Z 27011KT 17/00 A3013 RMK A01 T01740003  RH  032%=      5-min Rain = 0
KGU1 091412Z 25016KT 17/00 A3013 RMK A01 T01740001  RH  031%=      5-min Rain = 0
KGU1 091413Z 25014KT 17/01 A3012 RMK A01 T01740005  RH  032%=      5-min Rain = 0
KGU1 091414Z 26013G18KT 17/01 A3012 RMK A01 T01740006  RH  033%=      5-min Rain = 0
KGU1 091415Z 28015KT 17/01 A3012 RMK A01 T01740006  RH  032%=      5-min Rain = 0
KGU1 091416Z 27012KT 18/01 A3012 RMK A01 T01750006  RH  032%=      5-min Rain = 0
KGU1 091417Z 27016KT 18/01 A3012 RMK A01 T01750008  RH  033%=      5-min Rain = 0
KGU1 091418Z 26013KT 18/01 A3012 RMK A01 T01750010  RH  033%=      5-min Rain = 0
KGU1 091419Z 26016KT 18/01 A3012 RMK A01 T01760010  RH  033%=      5-min Rain = 0
KGU1 091420Z 26013G18KT 18/01 A3012 RMK A01 T01760011  RH  033%=      5-min Rain = 0
KGU1 091421Z 26013G18KT 18/01 A3012 RMK A01 T01760011  RH  033%=      5-min Rain = 0
KGU1 091422Z 26014KT 18/01 A3011 RMK A01 T01760012  RH  034%=      5-min Rain = 0
KGU1 091423Z 26012G17KT 18/01 A3011 RMK A01 T01760012  RH  034%=      5-min Rain = 0
KGU1 091424Z 26015KT 18/01 A3011 RMK A01 T01760013  RH  034%=      5-min Rain = 0
KGU1 091425Z 26014KT 18/01 A3011 RMK A01 T01760013  RH  034%=      5-min Rain = 0
KGU1 091426Z 27016G21KT 18/01 A3011 RMK A01 T01760014  RH  034%=      5-min Rain = 0
KGU1 091427Z 27018KT 18/01 A3011 RMK A01 T01760014  RH  034%=      5-min Rain = 0
KGU1 091428Z 28019G24KT 18/01 A3011 RMK A01 T01760012  RH  034%=      5-min Rain = 0
KGU1 091429Z 27018G27KT 18/01 A3011 RMK A01 T01760012  RH  034%=      5-min Rain = 0
KGU1 091430Z 26019KT 18/01 A3011 RMK A01 T01760011  RH  033%=      5-min Rain = 0
KGU1 091431Z 28021G27KT 18/01 A3011 RMK A01 T01750009  RH  033%=      5-min Rain = 0
KGU1 091432Z 26019KT 18/01 A3011 RMK A01 T01750009  RH  033%=      5-min Rain = 0
KGU1 091433Z 27022G30KT 18/01 A3011 RMK A01 T01750010  RH  033%=      5-min Rain = 0
KGU1 091434Z 28027G32KT 17/01 A3011 RMK A01 T01740012  RH  034%=      5-min Rain = 0
KGU1 091435Z 28024G33KT 17/01 A3011 RMK A01 T01740011  RH  034%=      5-min Rain = 0
KGU1 091436Z 28020G25KT 17/01 A3011 RMK A01 T01730014  RH  035%=      5-min Rain = 0
KGU1 091437Z 27021G31KT 17/01 A3011 RMK A01 T01730014  RH  035%=      5-min Rain = 0
KGU1 091438Z 27019G25KT 17/02 A3011 RMK A01 T01730015  RH  035%=      5-min Rain = 0
KGU1 091439Z 27020G26KT 17/02 A3011 RMK A01 T01730017  RH  036%=      5-min Rain = 0
KGU1 091440Z 27022G29KT 17/02 A3011 RMK A01 T01730018  RH  036%=      5-min Rain = 0
KGU1 091441Z 28023KT 17/02 A3011 RMK A01 T01730018  RH  036%=      5-min Rain = 0
KGU1 091442Z 28025KT 17/02 A3011 RMK A01 T01730018  RH  036%=      5-min Rain = 0
KGU1 091443Z 27022G29KT 17/02 A3011 RMK A01 T01720017  RH  036%=      5-min Rain = 0
KGU1 091444Z 28021KT 17/02 A3011 RMK A01 T01720016  RH  036%=      5-min Rain = 0
KGU1 091445Z 27022G32KT 17/02 A3011 RMK A01 T01720018  RH  036%=      5-min Rain = 0
KGU1 091446Z 27022G29KT 17/02 A3011 RMK A01 T01720017  RH  036%=      5-min Rain = 0
KGU1 091447Z 27019G26KT 17/02 A3011 RMK A01 T01710017  RH  036%=      5-min Rain = 0
KGU1 091448Z 27017KT 17/02 A3011 RMK A01 T01710016  RH  036%=      5-min Rain = 0
KGU1 091449Z 27017G27KT 17/02 A3011 RMK A01 T01710015  RH  035%=      5-min Rain = 0
KGU1 091450Z 26018G24KT 17/01 A3011 RMK A01 T01710013  RH  035%=      5-min Rain = 0
KGU1 091451Z 27016G21KT 17/01 A3011 RMK A01 T01700013  RH  035%=      5-min Rain = 0
KGU1 091452Z 27021G27KT 17/02 A3011 RMK A01 T01710015  RH  036%=      5-min Rain = 0
KGU1 091453Z 27019KT 17/02 A3011 RMK A01 T01710016  RH  036%=      5-min Rain = 0
KGU1 091454Z 27018G23KT 17/02 A3012 RMK A01 T01710015  RH  035%=      5-min Rain = 0
KGU1 091455Z 27022KT 17/01 A3012 RMK A01 T01700014  RH  035%=      5-min Rain = 0
KGU1 091456Z 26019G24KT 17/01 A3011 RMK A01 T01700013  RH  035%=      5-min Rain = 0
KGU1 091457Z 26018G24KT 17/01 A3011 RMK A01 T01700013  RH  035%=      5-min Rain = 0
KGU1 091458Z 27022KT 17/01 A3012 RMK A01 T01690013  RH  035%=      5-min Rain = 0
KGU1 091459Z 27020KT 17/01 A3012 RMK A01 T01700014  RH  036%=      5-min Rain = 0
KGU1 091500Z 28017KT 17/01 A3012 RMK A01 T01700014  RH  036%=      5-min Rain = 0
KGU1 091501Z 28017KT 17/02 A3011 RMK A01 T01700015  RH  036%=      5-min Rain = 0
KGU1 091502Z 28018G26KT 17/01 A3012 RMK A01 T01700013  RH  035%=      5-min Rain = 0
KGU1 091503Z 28014KT 17/01 A3011 RMK A01 T01700012  RH  035%=      5-min Rain = 0
KGU1 091504Z 29017G22KT 17/01 A3011 RMK A01 T01700013  RH  035%=      5-min Rain = 0
KGU1 091505Z 28017KT 17/01 A3011 RMK A01 T01700014  RH  035%=      5-min Rain = 0
KGU1 091506Z 29021G26KT 17/01 A3011 RMK A01 T01700013  RH  035%=      5-min Rain = 0
KGU1 091507Z 29018G23KT 17/01 A3011 RMK A01 T01700011  RH  035%=      5-min Rain = 0
KGU1 091508Z 29019KT 17/01 A3011 RMK A01 T01700011  RH  035%=      5-min Rain = 0
KGU1 091509Z 29017G23KT 17/01 A3011 RMK A01 T01700011  RH  035%=      5-min Rain = 0
KGU1 091510Z 30020G26KT 17/01 A3011 RMK A01 T01700011  RH  035%=      5-min Rain = 0
KGU1 091511Z 29023KT 17/01 A3011 RMK A01 T01700013  RH  035%=      5-min Rain = 0
KGU1 091512Z 29025G32KT 17/01 A3011 RMK A01 T01700013  RH  035%=      5-min Rain = 0
KGU1 091513Z 29022KT 17/01 A301 RMK A01 T01700014  RH  036%=      5-min Rain = 0
KGU1 091514Z 30020G25KT 17/02 A301 RMK A01 T01700015  RH  036%=      5-min Rain = 0
KGU1 091515Z 30022G29KT 17/02 A301 RMK A01 T01710016  RH  036%=      5-min Rain = 0
KGU1 091516Z 29024G30KT 17/02 A301 RMK A01 T01720018  RH  036%=      5-min Rain = 0
KGU1 091517Z 29020KT 17/02 A301 RMK A01 T01720018  RH  036%=      5-min Rain = 0
KGU1 091518Z 28025G30KT 17/02 A301 RMK A01 T01720018  RH  036%=      5-min Rain = 0
KGU1 091519Z 29023KT 17/02 A3011 RMK A01 T01710019  RH  036%=      5-min Rain = 0
KGU1 091520Z 29021KT 17/02 A3011 RMK A01 T01710020  RH  037%=      5-min Rain = 0
KGU1 091521Z 29020KT 17/02 A3011 RMK A01 T01710021  RH  037%=      5-min Rain = 0
KGU1 091522Z 29017KT 17/02 A301 RMK A01 T01710022  RH  037%=      5-min Rain = 0
KGU1 091523Z 29021G27KT 17/02 A301 RMK A01 T01720024  RH  038%=      5-min Rain = 0
KGU1 091524Z 30020G26KT 17/02 A301 RMK A01 T01720024  RH  038%=      5-min Rain = 0
KGU1 091525Z 29024G31KT 17/02 A301 RMK A01 T01730024  RH  037%=      5-min Rain = 0
KGU1 091526Z 29027KT 17/02 A301 RMK A01 T01730023  RH  037%=      5-min Rain = 0
KGU1 091527Z 29019G27KT 17/02 A301 RMK A01 T01720023  RH  037%=      5-min Rain = 0
KGU1 091528Z 29024G30KT 17/02 A3011 RMK A01 T01720024  RH  038%=      5-min Rain = 0
KGU1 091529Z 30018G25KT 17/02 A301 RMK A01 T01710024  RH  038%=      5-min Rain = 0
KGU1 091530Z 30021G27KT 17/03 A301 RMK A01 T01720025  RH  038%=      5-min Rain = 0
KGU1 091531Z 30023G29KT 17/03 A301 RMK A01 T01720025  RH  038%=      5-min Rain = 0
KGU1 091532Z 30022KT 17/03 A301 RMK A01 T01710025  RH  038%=      5-min Rain = 0
KGU1 091533Z 31019KT 17/03 A301 RMK A01 T01710025  RH  038%=      5-min Rain = 0
KGU1 091534Z 30021G27KT 17/03 A301 RMK A01 T01710025  RH  038%=      5-min Rain = 0
KGU1 091535Z 30017G22KT 17/03 A301 RMK A01 T01720027  RH  039%=      5-min Rain = 0
KGU1 091536Z 30022KT 17/03 A301 RMK A01 T01710026  RH  038%=      5-min Rain = 0
KGU1 091537Z 31022G29KT 17/03 A301 RMK A01 T01700025  RH  038%=      5-min Rain = 0
KGU1 091538Z 29027KT 17/03 A301 RMK A01 T01700025  RH  038%=      5-min Rain = 0
KGU1 091539Z 28021G33KT 17/03 A301 RMK A01 T01690025  RH  039%=      5-min Rain = 0
KGU1 091540Z 30019G26KT 17/03 A301 RMK A01 T01690026  RH  039%=      5-min Rain = 0
KGU1 091541Z 30023G29KT 17/03 A301 RMK A01 T01690026  RH  039%=      5-min Rain = 0
KGU1 091542Z 29021KT 17/03 A301 RMK A01 T01690026  RH  039%=      5-min Rain = 0
KGU1 091543Z 30020KT 17/03 A3011 RMK A01 T01700026  RH  039%=      5-min Rain = 0
KGU1 091544Z 30021KT 17/03 A3011 RMK A01 T01690026  RH  039%=      5-min Rain = 0
KGU1 091545Z 30025G30KT 17/03 A3011 RMK A01 T01690026  RH  039%=      5-min Rain = 0
KGU1 091546Z 29025KT 17/03 A3011 RMK A01 T01680026  RH  039%=      5-min Rain = 0
KGU1 091547Z 30023G28KT 17/03 A3011 RMK A01 T01680026  RH  039%=      5-min Rain = 0
KGU1 091548Z 31021G28KT 17/03 A3011 RMK A01 T01680026  RH  039%=      5-min Rain = 0
KGU1 091549Z 31025G31KT 17/03 A3011 RMK A01 T01680026  RH  039%=      5-min Rain = 0
KGU1 091550Z 30021G27KT 17/03 A3011 RMK A01 T01690027  RH  039%=      5-min Rain = 0
KGU1 091551Z 29025KT 17/03 A3011 RMK A01 T01700027  RH  039%=      5-min Rain = 0
KGU1 091552Z 29023G28KT 17/03 A3011 RMK A01 T01690025  RH  039%=      5-min Rain = 0
KGU1 091553Z 30018G25KT 17/03 A3011 RMK A01 T01680026  RH  039%=      5-min Rain = 0
KGU1 091554Z 30018KT 17/03 A3011 RMK A01 T01680026  RH  039%=      5-min Rain = 0
KGU1 091555Z 29015KT 17/03 A3011 RMK A01 T01680027  RH  039%=      5-min Rain = 0
KGU1 091556Z 30017G23KT 17/03 A3012 RMK A01 T01680027  RH  039%=      5-min Rain = 0
KGU1 091557Z 31023G31KT 17/03 A3012 RMK A01 T01680027  RH  040%=      5-min Rain = 0
KGU1 091558Z 30019G25KT 17/03 A3011 RMK A01 T01680027  RH  040%=      5-min Rain = 0
KGU1 091559Z 30021G28KT 17/03 A3011 RMK A01 T01670027  RH  040%=      5-min Rain = 0
KGU1 091600Z 31026KT 17/03 A3011 RMK A01 T01670027  RH  040%=      5-min Rain = 0
KGU1 091601Z 31021G27KT 17/03 A3011 RMK A01 T01660027  RH  040%=      5-min Rain = 0
KGU1 091602Z 30023KT 17/03 A3011 RMK A01 T01670027  RH  040%=      5-min Rain = 0
KGU1 091603Z 31018G24KT 17/03 A3011 RMK A01 T01670028  RH  040%=      5-min Rain = 0
KGU1 091604Z 30022G30KT 17/03 A3011 RMK A01 T01680029  RH  040%=      5-min Rain = 0
KGU1 091605Z 30027G32KT 17/03 A3011 RMK A01 T01680027  RH  039%=      5-min Rain = 0
KGU1 091606Z 29019G24KT 17/03 A3011 RMK A01 T01680028  RH  040%=      5-min Rain = 0
KGU1 091607Z 29016G21KT 17/03 A3011 RMK A01 T01690028  RH  040%=      5-min Rain = 0
KGU1 091608Z 30021G26KT 17/03 A3011 RMK A01 T01690028  RH  039%=      5-min Rain = 0
KGU1 091609Z 31023G30KT 17/03 A3012 RMK A01 T01680027  RH  039%=      5-min Rain = 0
KGU1 091610Z 31027KT 17/03 A3011 RMK A01 T01680025  RH  039%=      5-min Rain = 0
KGU1 091611Z 31021G28KT 17/03 A3012 RMK A01 T01670025  RH  039%=      5-min Rain = 0
KGU1 091612Z 31021KT 17/03 A3012 RMK A01 T01670027  RH  040%=      5-min Rain = 0
KGU1 091613Z 30025G34KT 17/03 A3012 RMK A01 T01670026  RH  040%=      5-min Rain = 0
KGU1 091614Z 30024G31KT 17/02 A3012 RMK A01 T01660023  RH  039%=      5-min Rain = 0
KGU1 091615Z 31021G28KT 17/02 A3012 RMK A01 T01660024  RH  039%=      5-min Rain = 0
KGU1 091616Z 29027G33KT 17/02 A3011 RMK A01 T01660023  RH  039%=      5-min Rain = 0
KGU1 091617Z 31019KT 17/02 A3012 RMK A01 T01660023  RH  039%=      5-min Rain = 0
KGU1 091618Z 30021KT 17/02 A3012 RMK A01 T01660024  RH  039%=      5-min Rain = 0
KGU1 091619Z 31019G24KT 17/02 A3012 RMK A01 T01660024  RH  039%=      5-min Rain = 0
KGU1 091620Z 30015KT 17/03 A3012 RMK A01 T01660025  RH  039%=      5-min Rain = 0
KGU1 091621Z 29017G23KT 17/02 A3012 RMK A01 T01660024  RH  039%=      5-min Rain = 0
KGU1 091622Z 29017KT 17/02 A3012 RMK A01 T01660022  RH  038%=      5-min Rain = 0
KGU1 091623Z 30018KT 17/02 A3012 RMK A01 T01660022  RH  039%=      5-min Rain = 0
KGU1 091624Z 30019G25KT 17/02 A3012 RMK A01 T01660022  RH  039%=      5-min Rain = 0
KGU1 091625Z 30021G26KT 17/02 A3011 RMK A01 T01650022  RH  039%=      5-min Rain = 0
KGU1 091626Z 30022G30KT 17/02 A3011 RMK A01 T01650022  RH  039%=      5-min Rain = 0
KGU1 091627Z 30023KT 16/02 A3012 RMK A01 T01640022  RH  039%=      5-min Rain = 0
KGU1 091628Z 30020G25KT 16/02 A3012 RMK A01 T01640023  RH  039%=      5-min Rain = 0
KGU1 091629Z 31023G28KT 16/02 A3012 RMK A01 T01640024  RH  039%=      5-min Rain = 0
KGU1 091630Z 31022KT 16/02 A3012 RMK A01 T01640024  RH  040%=      5-min Rain = 0
KGU1 091631Z 30021G26KT 16/02 A3012 RMK A01 T01630024  RH  040%=      5-min Rain = 0
KGU1 091632Z 31020KT 16/02 A3012 RMK A01 T01630024  RH  040%=      5-min Rain = 0
KGU1 091633Z 30022G27KT 16/03 A3012 RMK A01 T01630025  RH  040%=      5-min Rain = 0
KGU1 091634Z 30025G30KT 16/02 A3012 RMK A01 T01630024  RH  040%=      5-min Rain = 0
KGU1 091635Z 31029KT 16/02 A3012 RMK A01 T01620024  RH  040%=      5-min Rain = 0
KGU1 091636Z 31024KT 16/02 A3013 RMK A01 T01620024  RH  040%=      5-min Rain = 0
KGU1 091637Z 30020KT 16/02 A3013 RMK A01 T01620024  RH  040%=      5-min Rain = 0
KGU1 091638Z 30017KT 16/03 A3013 RMK A01 T01620026  RH  041%=      5-min Rain = 0
KGU1 091639Z 31016G23KT 16/03 A3013 RMK A01 T01620025  RH  040%=      5-min Rain = 0
KGU1 091640Z 29019G24KT 16/03 A3013 RMK A01 T01620025  RH  040%=      5-min Rain = 0
KGU1 091641Z 31020KT 16/02 A3013 RMK A01 T01620024  RH  040%=      5-min Rain = 0
KGU1 091642Z 30019KT 16/03 A3013 RMK A01 T01620025  RH  040%=      5-min Rain = 0
KGU1 091643Z 29017KT 16/03 A3013 RMK A01 T01620025  RH  040%=      5-min Rain = 0
KGU1 091644Z 30018KT 16/02 A3013 RMK A01 T01620024  RH  040%=      5-min Rain = 0
KGU1 091645Z 29018G24KT 16/03 A3013 RMK A01 T01620025  RH  041%=      5-min Rain = 0
KGU1 091646Z 30016G22KT 16/03 A3013 RMK A01 T01620026  RH  041%=      5-min Rain = 0
KGU1 091647Z 31020KT 16/03 A3013 RMK A01 T01620025  RH  041%=      5-min Rain = 0
KGU1 091648Z 30020G25KT 16/02 A3013 RMK A01 T01620024  RH  040%=      5-min Rain = 0
KGU1 091649Z 31020G28KT 16/03 A3013 RMK A01 T01620026  RH  041%=      5-min Rain = 0
KGU1 091650Z 30021G26KT 16/03 A3012 RMK A01 T01620026  RH  041%=      5-min Rain = 0
KGU1 091651Z 31020G27KT 16/03 A3013 RMK A01 T01620026  RH  041%=      5-min Rain = 0
KGU1 091652Z 30020G27KT 16/03 A3012 RMK A01 T01610026  RH  041%=      5-min Rain = 0
KGU1 091653Z 29018KT 16/03 A3012 RMK A01 T01610026  RH  041%=      5-min Rain = 0
KGU1 091654Z 30017KT 16/03 A3012 RMK A01 T01620027  RH  041%=      5-min Rain = 0
KGU1 091655Z 29018KT 16/03 A3012 RMK A01 T01630027  RH  041%=      5-min Rain = 0
KGU1 091656Z 30019G25KT 16/03 A3012 RMK A01 T01630026  RH  040%=      5-min Rain = 0
KGU1 091657Z 31020KT 16/03 A3012 RMK A01 T01620026  RH  041%=      5-min Rain = 0
KGU1 091658Z 31018G24KT 16/03 A3012 RMK A01 T01620026  RH  041%=      5-min Rain = 0
KGU1 091659Z 30021G26KT 16/03 A3012 RMK A01 T01620027  RH  041%=      5-min Rain = 0
KGU1 091700Z 31017G24KT 16/03 A3012 RMK A01 T01620027  RH  041%=      5-min Rain = 0
KGU1 091701Z 30017G23KT 16/03 A3012 RMK A01 T01630027  RH  041%=      5-min Rain = 0
KGU1 091702Z 30019G25KT 16/03 A3012 RMK A01 T01630026  RH  041%=      5-min Rain = 0
KGU1 091703Z 30020G25KT 16/03 A3012 RMK A01 T01630026  RH  041%=      5-min Rain = 0
KGU1 091704Z 30019KT 16/03 A3012 RMK A01 T01640027  RH  040%=      5-min Rain = 0
KGU1 091705Z 31017G23KT 16/03 A3013 RMK A01 T01640026  RH  040%=      5-min Rain = 0
KGU1 091706Z 31014KT 17/03 A3012 RMK A01 T01650027  RH  040%=      5-min Rain = 0
KGU1 091707Z 31017KT 17/03 A3012 RMK A01 T01650027  RH  040%=      5-min Rain = 0
KGU1 091708Z 31017KT 17/03 A3012 RMK A01 T01650027  RH  040%=      5-min Rain = 0
KGU1 091709Z 30017KT 17/03 A3012 RMK A01 T01660027  RH  040%=      5-min Rain = 0
KGU1 091710Z 30019KT 17/03 A3012 RMK A01 T01670026  RH  040%=      5-min Rain = 0
KGU1 091711Z 30017G23KT 17/03 A3012 RMK A01 T01660026  RH  040%=      5-min Rain = 0
KGU1 091712Z 30020G27KT 17/03 A3012 RMK A01 T01670027  RH  040%=      5-min Rain = 0
KGU1 091713Z 30019G26KT 17/03 A3013 RMK A01 T01660025  RH  039%=      5-min Rain = 0
KGU1 091714Z 30019KT 17/03 A3012 RMK A01 T01650025  RH  040%=      5-min Rain = 0
KGU1 091715Z 29018KT 17/03 A3012 RMK A01 T01650026  RH  040%=      5-min Rain = 0
KGU1 091716Z 29018KT 17/03 A3012 RMK A01 T01660026  RH  040%=      5-min Rain = 0
KGU1 091717Z 29020KT 17/03 A3012 RMK A01 T01660026  RH  040%=      5-min Rain = 0
KGU1 091718Z 30020G25KT 17/03 A3012 RMK A01 T01660026  RH  040%=      5-min Rain = 0
KGU1 091719Z 30019G24KT 17/03 A3013 RMK A01 T01660027  RH  040%=      5-min Rain = 0
KGU1 091720Z 29019KT 17/03 A3013 RMK A01 T01670027  RH  040%=      5-min Rain = 0
KGU1 091721Z 30016KT 17/03 A3013 RMK A01 T01670027  RH  040%=      5-min Rain = 0
KGU1 091722Z 30015G20KT 17/03 A3013 RMK A01 T01670028  RH  040%=      5-min Rain = 0
KGU1 091723Z 29014KT 17/03 A3013 RMK A01 T01670029  RH  040%=      5-min Rain = 0
KGU1 091724Z 29013KT 17/03 A3013 RMK A01 T01680030  RH  040%=      5-min Rain = 0
KGU1 091725Z 29013KT 17/03 A3013 RMK A01 T01680030  RH  040%=      5-min Rain = 0
KGU1 091726Z 29016G21KT 17/03 A3013 RMK A01 T01690030  RH  040%=      5-min Rain = 0
KGU1 091727Z 29017KT 17/03 A3012 RMK A01 T01680029  RH  040%=      5-min Rain = 0
KGU1 091728Z 30015KT 17/03 A3012 RMK A01 T01680030  RH  040%=      5-min Rain = 0
KGU1 091729Z 29019G24KT 17/03 A3012 RMK A01 T01680030  RH  040%=      5-min Rain = 0
KGU1 091730Z 28021KT 17/03 A3012 RMK A01 T01680027  RH  040%=      5-min Rain = 0
KGU1 091731Z 29020KT 17/03 A3012 RMK A01 T01670027  RH  040%=      5-min Rain = 0
KGU1 091732Z 29015KT 17/03 A3012 RMK A01 T01670028  RH  040%=      5-min Rain = 0
KGU1 091733Z 31014KT 17/03 A3012 RMK A01 T01690031  RH  040%=      5-min Rain = 0
KGU1 091734Z 31014KT 17/03 A3012 RMK A01 T01700031  RH  040%=      5-min Rain = 0
KGU1 091735Z 31016KT 17/03 A3012 RMK A01 T01710032  RH  040%=      5-min Rain = 0
KGU1 091736Z 30015G22KT 17/03 A3012 RMK A01 T01720031  RH  040%=      5-min Rain = 0
KGU1 091737Z 32017G22KT 17/03 A3012 RMK A01 T01720032  RH  040%=      5-min Rain = 0
KGU1 091738Z 32016G21KT 17/03 A3012 RMK A01 T01700030  RH  040%=      5-min Rain = 0
KGU1 091739Z 32014KT 17/03 A3012 RMK A01 T01700031  RH  040%=      5-min Rain = 0
KGU1 091740Z 31017G24KT 17/03 A3011 RMK A01 T01710032  RH  040%=      5-min Rain = 0
KGU1 091741Z 31019KT 17/03 A3012 RMK A01 T01700032  RH  040%=      5-min Rain = 0
KGU1 091742Z 32019KT 17/03 A3012 RMK A01 T01700032  RH  041%=      5-min Rain = 0
KGU1 091743Z 31020KT 17/03 A3012 RMK A01 T01690032  RH  041%=      5-min Rain = 0
KGU1 091744Z 32017KT 17/03 A3012 RMK A01 T01680032  RH  041%=      5-min Rain = 0
KGU1 091745Z 32019KT 17/03 A3012 RMK A01 T01680032  RH  041%=      5-min Rain = 0
KGU1 091746Z 32018KT 17/03 A3012 RMK A01 T01670031  RH  041%=      5-min Rain = 0
KGU1 091747Z 31016G21KT 17/03 A3012 RMK A01 T01660031  RH  041%=      5-min Rain = 0
KGU1 091748Z 31019KT 17/03 A3011 RMK A01 T01670031  RH  041%=      5-min Rain = 0
KGU1 091749Z 32012G18KT 17/03 A3011 RMK A01 T01670032  RH  041%=      5-min Rain = 0
KGU1 091750Z 31017G23KT 17/03 A3012 RMK A01 T01690032  RH  041%=      5-min Rain = 0
KGU1 091751Z 31015KT 17/03 A3012 RMK A01 T01690031  RH  040%=      5-min Rain = 0
KGU1 091752Z 31018G23KT 17/03 A3012 RMK A01 T01690031  RH  040%=      5-min Rain = 0
KGU1 091753Z 32016KT 17/03 A3012 RMK A01 T01680030  RH  040%=      5-min Rain = 0
KGU1 091754Z 31015G21KT 17/03 A3012 RMK A01 T01670031  RH  041%=      5-min Rain = 0
KGU1 091755Z 31017KT 17/03 A3012 RMK A01 T01680030  RH  040%=      5-min Rain = 0
KGU1 091756Z 31015G20KT 17/03 A3012 RMK A01 T01670030  RH  041%=      5-min Rain = 0
KGU1 091757Z 31017KT 17/03 A3012 RMK A01 T01670030  RH  041%=      5-min Rain = 0
KGU1 091758Z 30018KT 17/03 A3012 RMK A01 T01670030  RH  041%=      5-min Rain = 0
KGU1 091759Z 30015KT 17/03 A3012 RMK A01 T01670031  RH  041%=      5-min Rain = 0
KGU1 091800Z 31016G21KT 17/03 A3012 RMK A01 T01690031  RH  041%=      5-min Rain = 0
KGU1 091801Z 30017G23KT 17/03 A3012 RMK A01 T01690030  RH  040%=      5-min Rain = 0
KGU1 091802Z 31015KT 17/03 A3012 RMK A01 T01690030  RH  040%=      5-min Rain = 0
KGU1 091803Z 31016KT 17/03 A3012 RMK A01 T01690030  RH  040%=      5-min Rain = 0
KGU1 091804Z 30015KT 17/03 A3012 RMK A01 T01690031  RH  040%=      5-min Rain = 0
KGU1 091805Z 30016G21KT 17/03 A3012 RMK A01 T01690031  RH  040%=      5-min Rain = 0
KGU1 091806Z 29013KT 17/03 A3012 RMK A01 T01680031  RH  040%=      5-min Rain = 0
KGU1 091807Z 29012KT 17/03 A3013 RMK A01 T01700033  RH  041%=      5-min Rain = 0
KGU1 091808Z 29015KT 17/03 A3013 RMK A01 T01710032  RH  040%=      5-min Rain = 0
KGU1 091809Z 28015KT 17/03 A3013 RMK A01 T01700030  RH  040%=      5-min Rain = 0
KGU1 091810Z 28016KT 17/03 A3013 RMK A01 T01690028  RH  040%=      5-min Rain = 0
KGU1 091811Z 28018G23KT 17/03 A3012 RMK A01 T01680028  RH  040%=      5-min Rain = 0
KGU1 091812Z 28019KT 17/03 A3013 RMK A01 T01680027  RH  040%=      5-min Rain = 0
KGU1 091813Z 29017G22KT 17/03 A3012 RMK A01 T01670027  RH  040%=      5-min Rain = 0
KGU1 091814Z 28019KT 17/03 A3012 RMK A01 T01660026  RH  040%=      5-min Rain = 0
KGU1 091815Z 28016G21KT 17/03 A3012 RMK A01 T01670027  RH  040%=      5-min Rain = 0
KGU1 091816Z 28015KT 17/03 A3012 RMK A01 T01680028  RH  040%=      5-min Rain = 0
KGU1 091817Z 29016KT 17/03 A3012 RMK A01 T01690029  RH  040%=      5-min Rain = 0
KGU1 091818Z 28014KT 17/03 A3012 RMK A01 T01680028  RH  040%=      5-min Rain = 0
KGU1 091819Z 28012KT 17/03 A3012 RMK A01 T01680030  RH  040%=      5-min Rain = 0
KGU1 091820Z 28014KT 17/03 A3012 RMK A01 T01680030  RH  040%=      5-min Rain = 0
KGU1 091821Z 27016G22KT 17/03 A3012 RMK A01 T01690031  RH  040%=      5-min Rain = 0
KGU1 091822Z 28018KT 17/03 A3011 RMK A01 T01690029  RH  040%=      5-min Rain = 0
KGU1 091823Z 29016KT 17/03 A3012 RMK A01 T01680030  RH  040%=      5-min Rain = 0
KGU1 091824Z 29013KT 17/03 A3012 RMK A01 T01690030  RH  040%=      5-min Rain = 0
KGU1 091825Z 29015KT 17/03 A3011 RMK A01 T01710032  RH  040%=      5-min Rain = 0
KGU1 091826Z 28017KT 17/03 A3011 RMK A01 T01720030  RH  039%=      5-min Rain = 0
KGU1 091827Z 28013KT 17/03 A3011 RMK A01 T01710030  RH  040%=      5-min Rain = 0
KGU1 091828Z 28013G18KT 17/03 A3011 RMK A01 T01730032  RH  040%=      5-min Rain = 0
KGU1 091829Z 29014KT 17/03 A3011 RMK A01 T01720029  RH  039%=      5-min Rain = 0
KGU1 091830Z 29014G20KT 17/03 A3011 RMK A01 T01710028  RH  039%=      5-min Rain = 0
KGU1 091831Z 29017KT 17/03 A3011 RMK A01 T01700028  RH  039%=      5-min Rain = 0
KGU1 091832Z 28017KT 17/03 A3011 RMK A01 T01690028  RH  039%=      5-min Rain = 0
KGU1 091833Z 28016KT 17/03 A3011 RMK A01 T01690027  RH  039%=      5-min Rain = 0
KGU1 091834Z 27012KT 17/03 A3011 RMK A01 T01690027  RH  039%=      5-min Rain = 0
KGU1 091835Z 27017KT 17/03 A3011 RMK A01 T01690027  RH  039%=      5-min Rain = 0
KGU1 091836Z 28015G21KT 17/03 A3012 RMK A01 T01690025  RH  039%=      5-min Rain = 0
KGU1 091837Z 27012KT 17/03 A3011 RMK A01 T01690026  RH  039%=      5-min Rain = 0
KGU1 091838Z 26013KT 17/03 A3011 RMK A01 T01690026  RH  039%=      5-min Rain = 0
KGU1 091839Z 28015KT 17/03 A3012 RMK A01 T01680025  RH  039%=      5-min Rain = 0
KGU1 091840Z 29015KT 17/02 A3012 RMK A01 T01680023  RH  038%=      5-min Rain = 0
KGU1 091841Z 28015KT 17/02 A3012 RMK A01 T01680022  RH  038%=      5-min Rain = 0
KGU1 091842Z 29013G19KT 17/02 A3012 RMK A01 T01680023  RH  038%=      5-min Rain = 0
KGU1 091843Z 27014KT 17/02 A3011 RMK A01 T01680022  RH  038%=      5-min Rain = 0
KGU1 091844Z 27008G13KT 17/02 A3011 RMK A01 T01680021  RH  038%=      5-min Rain = 0
KGU1 091845Z 29012G17KT 17/02 A3011 RMK A01 T01680023  RH  038%=      5-min Rain = 0
KGU1 091846Z 28011KT 17/02 A3011 RMK A01 T01690023  RH  038%=      5-min Rain = 0
KGU1 091847Z 28014KT 17/02 A3011 RMK A01 T01700024  RH  038%=      5-min Rain = 0
KGU1 091848Z 28012KT 17/02 A3012 RMK A01 T01700023  RH  038%=      5-min Rain = 0
KGU1 091849Z 27009KT 17/02 A3012 RMK A01 T01700021  RH  037%=      5-min Rain = 0
KGU1 091850Z 30011G18KT 17/02 A3012 RMK A01 T01700023  RH  038%=      5-min Rain = 0
KGU1 091851Z 29012KT 17/02 A3012 RMK A01 T01690020  RH  037%=      5-min Rain = 0
KGU1 091852Z 28011KT 17/02 A3012 RMK A01 T01690022  RH  038%=      5-min Rain = 0
KGU1 091853Z 29010KT 17/02 A3012 RMK A01 T01690021  RH  037%=      5-min Rain = 0
KGU1 091854Z 29011KT 17/02 A3012 RMK A01 T01690021  RH  037%=      5-min Rain = 0
KGU1 091855Z 27015KT 17/02 A3012 RMK A01 T01690021  RH  038%=      5-min Rain = 0
KGU1 091856Z 25010KT 17/02 A3012 RMK A01 T01690023  RH  038%=      5-min Rain = 0
KGU1 091857Z 28011KT 17/02 A3012 RMK A01 T01700023  RH  038%=      5-min Rain = 0
KGU1 091858Z 27010G18KT 17/02 A3012 RMK A01 T01700023  RH  038%=      5-min Rain = 0
KGU1 091859Z 28014G20KT 17/02 A3012 RMK A01 T01700022  RH  038%=      5-min Rain = 0
KGU1 091900Z 28009G15KT 17/02 A3012 RMK A01 T01690020  RH  037%=      5-min Rain = 0
KGU1 091901Z 29014KT 17/02 A3012 RMK A01 T01680022  RH  038%=      5-min Rain = 0
KGU1 091902Z 29013KT 17/02 A3012 RMK A01 T01680022  RH  038%=      5-min Rain = 0
KGU1 091903Z 29014G19KT 17/02 A3012 RMK A01 T01690023  RH  038%=      5-min Rain = 0
KGU1 091904Z 28011KT 17/02 A3012 RMK A01 T01690022  RH  038%=      5-min Rain = 0
KGU1 091905Z 27015KT 17/03 A3012 RMK A01 T01690025  RH  039%=      5-min Rain = 0
KGU1 091906Z 27013KT 17/02 A3012 RMK A01 T01690024  RH  038%=      5-min Rain = 0
KGU1 091907Z 28010KT 17/03 A3012 RMK A01 T01680026  RH  039%=      5-min Rain = 0
KGU1 091908Z 28009KT 17/03 A3012 RMK A01 T01700026  RH  039%=      5-min Rain = 0
KGU1 091909Z 27006KT 17/03 A3011 RMK A01 T01710027  RH  039%=      5-min Rain = 0
KGU1 091910Z 29007KT 17/03 A3011 RMK A01 T01730028  RH  039%=      5-min Rain = 0
KGU1 091911Z 28006KT 17/03 A3011 RMK A01 T01740029  RH  039%=      5-min Rain = 0
KGU1 091912Z 26006KT 17/03 A3011 RMK A01 T01740028  RH  038%=      5-min Rain = 0
KGU1 091913Z 28007G12KT 18/03 A3011 RMK A01 T01760031  RH  039%=      5-min Rain = 0
KGU1 091914Z 31007G13KT 18/03 A3011 RMK A01 T01770030  RH  038%=      5-min Rain = 0
KGU1 091915Z 26008G13KT 18/03 A3011 RMK A01 T01760030  RH  038%=      5-min Rain = 0
KGU1 091916Z 25007KT 18/03 A3011 RMK A01 T01750031  RH  039%=      5-min Rain = 0
KGU1 091917Z 26009KT 18/03 A3011 RMK A01 T01750030  RH  039%=      5-min Rain = 0
KGU1 091918Z 28009KT 18/03 A3011 RMK A01 T01750030  RH  039%=      5-min Rain = 0
KGU1 091919Z 27011KT 18/03 A3011 RMK A01 T01760032  RH  039%=      5-min Rain = 0
KGU1 091920Z 29013KT 18/03 A3011 RMK A01 T01760030  RH  038%=      5-min Rain = 0
KGU1 091921Z 28013KT 18/03 A3011 RMK A01 T01750030  RH  039%=      5-min Rain = 0
KGU1 091922Z 27012KT 17/03 A3011 RMK A01 T01740029  RH  038%=      5-min Rain = 0
KGU1 091923Z 27009KT 17/03 A3011 RMK A01 T01740030  RH  039%=      5-min Rain = 0
KGU1 091924Z 30008KT 17/03 A3011 RMK A01 T01740031  RH  039%=      5-min Rain = 0
KGU1 091925Z 28010KT 17/03 A3011 RMK A01 T01740030  RH  039%=      5-min Rain = 0
KGU1 091926Z 28012KT 18/03 A3011 RMK A01 T01750031  RH  039%=      5-min Rain = 0
KGU1 091927Z 28011KT 18/03 A3011 RMK A01 T01750029  RH  038%=      5-min Rain = 0
KGU1 091928Z 28009KT 17/03 A3011 RMK A01 T01740027  RH  038%=      5-min Rain = 0
KGU1 091929Z 28011KT 17/03 A3011 RMK A01 T01740029  RH  039%=      5-min Rain = 0
KGU1 091930Z 30010KT 18/03 A3011 RMK A01 T01750029  RH  038%=      5-min Rain = 0
KGU1 091931Z 29011KT 17/03 A3011 RMK A01 T01730028  RH  039%=      5-min Rain = 0
KGU1 091932Z 27008KT 17/03 A3011 RMK A01 T01740029  RH  039%=      5-min Rain = 0
KGU1 091933Z 28007KT 17/03 A3011 RMK A01 T01740031  RH  039%=      5-min Rain = 0
KGU1 091934Z 30013KT 18/03 A3011 RMK A01 T01750032  RH  039%=      5-min Rain = 0
KGU1 091935Z 31016G21KT 17/03 A3011 RMK A01 T01740029  RH  038%=      5-min Rain = 0
KGU1 091936Z 31014KT 17/03 A3011 RMK A01 T01700028  RH  039%=      5-min Rain = 0
KGU1 091937Z 28006G14KT 17/03 A3011 RMK A01 T01710030  RH  040%=      5-min Rain = 0
KGU1 091938Z 29007G15KT 17/03 A3011 RMK A01 T01730033  RH  040%=      5-min Rain = 0
KGU1 091939Z 29013KT 18/03 A3011 RMK A01 T01760034  RH  039%=      5-min Rain = 0
KGU1 091940Z 29012KT 18/03 A3011 RMK A01 T01750033  RH  039%=      5-min Rain = 0
KGU1 091941Z 29016G23KT 17/03 A301 RMK A01 T01730033  RH  040%=      5-min Rain = 0
KGU1 091942Z 28013KT 17/03 A301 RMK A01 T01730032  RH  039%=      5-min Rain = 0
KGU1 091943Z 25007KT 17/03 A301 RMK A01 T01730031  RH  039%=      5-min Rain = 0
KGU1 091944Z 22005KT 17/03 A301 RMK A01 T01720031  RH  040%=      5-min Rain = 0
KGU1 091945Z 21002KT 17/03 A301 RMK A01 T01730034  RH  040%=      5-min Rain = 0
KGU1 091946Z 20005KT 18/04 A301 RMK A01 T01750035  RH  040%=      5-min Rain = 0
KGU1 091947Z 23006KT 18/03 A301 RMK A01 T01750034  RH  040%=      5-min Rain = 0
KGU1 091948Z 24005KT 18/04 A301 RMK A01 T01750035  RH  040%=      5-min Rain = 0
KGU1 091949Z 24006KT 18/03 A301 RMK A01 T01760034  RH  040%=      5-min Rain = 0
KGU1 091950Z 28005KT 18/03 A301 RMK A01 T01760031  RH  039%=      5-min Rain = 0
KGU1 091951Z 27008KT 18/03 A301 RMK A01 T01750031  RH  039%=      5-min Rain = 0
KGU1 091952Z 24006KT 18/03 A301 RMK A01 T01750033  RH  039%=      5-min Rain = 0
KGU1 091953Z 22005KT 18/04 A301 RMK A01 T01760035  RH  040%=      5-min Rain = 0
KGU1 091954Z 24006KT 18/04 A301 RMK A01 T01780038  RH  040%=      5-min Rain = 0
KGU1 091955Z 27013KT 18/03 A301 RMK A01 T01790031  RH  038%=      5-min Rain = 0
KGU1 091956Z 28012KT 18/03 A301 RMK A01 T01780025  RH  036%=      5-min Rain = 0
KGU1 091957Z 28007KT 18/03 A301 RMK A01 T01760026  RH  037%=      5-min Rain = 0
KGU1 091958Z 29013KT 18/03 A301 RMK A01 T01770029  RH  038%=      5-min Rain = 0
KGU1 091959Z 28015KT 18/03 A301 RMK A01 T01770027  RH  037%=      5-min Rain = 0
KGU1 092000Z 25008KT 18/03 A301 RMK A01 T01750027  RH  038%=      5-min Rain = 0
KGU1 092001Z 30012KT 18/03 A301 RMK A01 T01750027  RH  038%=      5-min Rain = 0
KGU1 092002Z 29013KT 18/03 A301 RMK A01 T01750025  RH  037%=      5-min Rain = 0
KGU1 092003Z 28009KT 18/02 A301 RMK A01 T01750023  RH  037%=      5-min Rain = 0
KGU1 092004Z 29007KT 17/03 A301 RMK A01 T01740025  RH  037%=      5-min Rain = 0
KGU1 092005Z 30011KT 18/03 A301 RMK A01 T01760028  RH  038%=      5-min Rain = 0
KGU1 092006Z 29014KT 18/03 A301 RMK A01 T01780029  RH  037%=      5-min Rain = 0
KGU1 092007Z 28014KT 18/03 A3009 RMK A01 T01790027  RH  037%=      5-min Rain = 0
KGU1 092008Z 28012KT 18/03 A301 RMK A01 T01800028  RH  037%=      5-min Rain = 0
KGU1 092009Z 30013KT 18/03 A301 RMK A01 T01810030  RH  037%=      5-min Rain = 0
KGU1 092010Z 29016KT 18/03 A301 RMK A01 T01800030  RH  037%=      5-min Rain = 0
KGU1 092011Z 29011KT 18/03 A301 RMK A01 T01780030  RH  038%=      5-min Rain = 0
KGU1 092012Z 30011KT 18/03 A301 RMK A01 T01780029  RH  038%=      5-min Rain = 0
KGU1 092013Z 28010KT 18/03 A301 RMK A01 T01770028  RH  038%=      5-min Rain = 0
KGU1 092014Z 29011KT 18/03 A301 RMK A01 T01770026  RH  037%=      5-min Rain = 0
KGU1 092015Z 31012KT 18/03 A301 RMK A01 T01770028  RH  037%=      5-min Rain = 0
KGU1 092016Z 29011KT 18/03 A301 RMK A01 T01780029  RH  038%=      5-min Rain = 0
KGU1 092017Z 31013KT 18/03 A301 RMK A01 T01790030  RH  038%=      5-min Rain = 0
KGU1 092018Z 28008KT 18/03 A301 RMK A01 T01780031  RH  038%=      5-min Rain = 0
KGU1 092019Z 30010KT 18/03 A301 RMK A01 T01770032  RH  038%=      5-min Rain = 0
KGU1 092020Z 31012KT 18/03 A301 RMK A01 T01770031  RH  038%=      5-min Rain = 0
KGU1 092021Z 31014G22KT 18/03 A301 RMK A01 T01760029  RH  038%=      5-min Rain = 0
KGU1 092022Z 30012G19KT 18/03 A301 RMK A01 T01780031  RH  038%=      5-min Rain = 0
KGU1 092023Z 31011G17KT 18/03 A301 RMK A01 T01800032  RH  038%=      5-min Rain = 0
KGU1 092024Z 31015KT 19/03 A301 RMK A01 T01850031  RH  036%=      5-min Rain = 0
KGU1 092025Z 33010G15KT 18/03 A301 RMK A01 T01820026  RH  036%=      5-min Rain = 0
KGU1 092026Z 33008G13KT 18/03 A3009 RMK A01 T01770029  RH  038%=      5-min Rain = 0
KGU1 092027Z 31014KT 18/03 A3009 RMK A01 T01780032  RH  038%=      5-min Rain = 0
KGU1 092028Z 29014KT 18/03 A3009 RMK A01 T01810033  RH  038%=      5-min Rain = 0
KGU1 092029Z 29012KT 18/03 A3009 RMK A01 T01840034  RH  038%=      5-min Rain = 0
KGU1 092030Z 31013KT 18/03 A301 RMK A01 T01840033  RH  037%=      5-min Rain = 0
KGU1 092031Z 29007G14KT 18/03 A3009 RMK A01 T01830033  RH  037%=      5-min Rain = 0
KGU1 092032Z 30015G22KT 18/03 A3009 RMK A01 T01830031  RH  037%=      5-min Rain = 0
KGU1 092033Z 32009G14KT 18/03 A3009 RMK A01 T01810028  RH  037%=      5-min Rain = 0
KGU1 092034Z 30013KT 18/03 A3009 RMK A01 T01820029  RH  037%=      5-min Rain = 0
KGU1 092035Z 31012KT 18/03 A301 RMK A01 T01830026  RH  036%=      5-min Rain = 0
KGU1 092036Z 29014KT 18/03 A3009 RMK A01 T01810028  RH  036%=      5-min Rain = 0
KGU1 092037Z 29013KT 18/03 A3009 RMK A01 T01820027  RH  036%=      5-min Rain = 0
KGU1 092038Z 29012KT 18/03 A3009 RMK A01 T01820028  RH  036%=      5-min Rain = 0
KGU1 092039Z 28010KT 18/03 A3009 RMK A01 T01830028  RH  036%=      5-min Rain = 0
KGU1 092040Z 29012KT 18/03 A3009 RMK A01 T01840029  RH  036%=      5-min Rain = 0
KGU1 092041Z 29012KT 18/03 A3009 RMK A01 T01830029  RH  036%=      5-min Rain = 0
KGU1 092042Z 28009KT 18/03 A3009 RMK A01 T01840032  RH  037%=      5-min Rain = 0
KGU1 092043Z 28011G18KT 19/03 A3009 RMK A01 T01890034  RH  036%=      5-min Rain = 0
KGU1 092044Z 28015KT 19/03 A3009 RMK A01 T01910031  RH  035%=      5-min Rain = 0
KGU1 092045Z 27013KT 19/03 A3009 RMK A01 T01930030  RH  035%=      5-min Rain = 0
KGU1 092046Z 25009KT 20/03 A3009 RMK A01 T01960030  RH  034%=      5-min Rain = 0
KGU1 092047Z 27011KT 20/03 A3009 RMK A01 T01970029  RH  034%=      5-min Rain = 0
KGU1 092048Z 29007KT 20/03 A3009 RMK A01 T01960028  RH  033%=      5-min Rain = 0
KGU1 092049Z 30009KT 19/03 A3009 RMK A01 T01910028  RH  035%=      5-min Rain = 0
KGU1 092050Z 30011KT 19/03 A3009 RMK A01 T01880027  RH  035%=      5-min Rain = 0
KGU1 092051Z 30011KT 19/03 A3009 RMK A01 T01860028  RH  035%=      5-min Rain = 0
KGU1 092052Z 29010KT 18/03 A3008 RMK A01 T01840025  RH  035%=      5-min Rain = 0
KGU1 092053Z 30011KT 19/03 A3008 RMK A01 T01860028  RH  035%=      5-min Rain = 0
KGU1 092054Z 31010G15KT 19/03 A3008 RMK A01 T01910030  RH  035%=      5-min Rain = 0
KGU1 092055Z 29014KT 20/03 A3008 RMK A01 T01960031  RH  034%=      5-min Rain = 0
KGU1 092056Z 24013KT 20/03 A3008 RMK A01 T01990026  RH  032%=      5-min Rain = 0
KGU1 092057Z 25013KT 20/02 A3008 RMK A01 T01970024  RH  032%=      5-min Rain = 0
KGU1 092058Z 24009KT 20/03 A3008 RMK A01 T01980027  RH  033%=      5-min Rain = 0
KGU1 092059Z 27012G18KT 20/03 A3008 RMK A01 T01990027  RH  033%=      5-min Rain = 0
KGU1 092100Z 27012KT 20/03 A3008 RMK A01 T01980028  RH  033%=      5-min Rain = 0
KGU1 092101Z 27014KT 20/03 A3008 RMK A01 T01970028  RH  033%=      5-min Rain = 0
KGU1 092102Z 27011G16KT 20/03 A3008 RMK A01 T01990027  RH  033%=      5-min Rain = 0
KGU1 092103Z 26010KT 20/03 A3008 RMK A01 T02000028  RH  032%=      5-min Rain = 0
KGU1 092104Z 23013KT 20/03 A3008 RMK A01 T02020027  RH  032%=      5-min Rain = 0
KGU1 092105Z 23013KT 20/03 A3008 RMK A01 T02010025  RH  032%=      5-min Rain = 0
KGU1 092106Z 28011G16KT 20/03 A3008 RMK A01 T01990026  RH  032%=      5-min Rain = 0
KGU1 092107Z 29010G15KT 20/03 A3008 RMK A01 T01990027  RH  032%=      5-min Rain = 0
KGU1 092108Z 29008KT 20/03 A3008 RMK A01 T01960025  RH  033%=      5-min Rain = 0
KGU1 092109Z 30010KT 20/03 A3008 RMK A01 T01980028  RH  033%=      5-min Rain = 0
KGU1 092110Z 28011KT 20/03 A3008 RMK A01 T02010029  RH  032%=      5-min Rain = 0
KGU1 092111Z 27008KT 20/03 A3008 RMK A01 T02020030  RH  032%=      5-min Rain = 0
KGU1 092112Z 30010KT 20/03 A3008 RMK A01 T02040031  RH  032%=      5-min Rain = 0
KGU1 092113Z 30008KT 20/03 A3008 RMK A01 T02040030  RH  032%=      5-min Rain = 0
KGU1 092114Z 28010G15KT 20/03 A3008 RMK A01 T02040033  RH  033%=      5-min Rain = 0
KGU1 092115Z 31006KT 20/03 A3008 RMK A01 T02030029  RH  032%=      5-min Rain = 0
KGU1 092116Z 31007KT 20/03 A3008 RMK A01 T02020031  RH  033%=      5-min Rain = 0
KGU1 092117Z 28008KT 20/03 A3008 RMK A01 T02040033  RH  033%=      5-min Rain = 0
KGU1 092118Z 26007KT 21/03 A3007 RMK A01 T02060030  RH  032%=      5-min Rain = 0
KGU1 092119Z 28006KT 20/03 A3008 RMK A01 T02030029  RH  032%=      5-min Rain = 0
KGU1 092120Z 30006KT 20/03 A3008 RMK A01 T02030032  RH  033%=      5-min Rain = 0
KGU1 092121Z 30008KT 20/03 A3008 RMK A01 T02020030  RH  032%=      5-min Rain = 0
KGU1 092122Z 31009KT 20/03 A3008 RMK A01 T02000030  RH  033%=      5-min Rain = 0
KGU1 092123Z 30006KT 20/03 A3008 RMK A01 T01980029  RH  033%=      5-min Rain = 0
KGU1 092124Z 31005KT 20/04 A3007 RMK A01 T02000035  RH  034%=      5-min Rain = 0
KGU1 092125Z 29009KT 20/03 A3008 RMK A01 T02030031  RH  033%=      5-min Rain = 0
KGU1 092126Z 27007KT 20/03 A3007 RMK A01 T02010031  RH  033%=      5-min Rain = 0
KGU1 092127Z 28007G15KT 20/03 A3007 RMK A01 T02020033  RH  033%=      5-min Rain = 0
KGU1 092128Z 30010KT 20/03 A3007 RMK A01 T02010030  RH  033%=      5-min Rain = 0
KGU1 092129Z 30009KT 20/03 A3007 RMK A01 T01980029  RH  033%=      5-min Rain = 0
KGU1 092130Z 30010KT 20/03 A3007 RMK A01 T01980031  RH  034%=      5-min Rain = 0
KGU1 092131Z 30014KT 20/03 A3007 RMK A01 T01990030  RH  033%=      5-min Rain = 0
KGU1 092132Z 31014KT 20/03 A3007 RMK A01 T01970031  RH  034%=      5-min Rain = 0
KGU1 092133Z 29013KT 20/03 A3007 RMK A01 T01980031  RH  034%=      5-min Rain = 0
KGU1 092134Z 30011G16KT 20/03 A3007 RMK A01 T01980030  RH  033%=      5-min Rain = 0
KGU1 092135Z 31010KT 20/03 A3007 RMK A01 T01960031  RH  034%=      5-min Rain = 0
KGU1 092136Z 30010KT 20/03 A3007 RMK A01 T01960031  RH  034%=      5-min Rain = 0
KGU1 092137Z 30009KT 20/03 A3007 RMK A01 T01960031  RH  034%=      5-min Rain = 0
KGU1 092138Z 31009KT 20/03 A3007 RMK A01 T01960031  RH  034%=      5-min Rain = 0
KGU1 092139Z 29007KT 20/03 A3007 RMK A01 T01960031  RH  034%=      5-min Rain = 0
KGU1 092140Z 29004KT 20/03 A3007 RMK A01 T01950031  RH  034%=      5-min Rain = 0
KGU1 092141Z 30005KT 20/03 A3007 RMK A01 T01950033  RH  035%=      5-min Rain = 0
KGU1 092142Z 32003KT 20/03 A3007 RMK A01 T01960032  RH  034%=      5-min Rain = 0
KGU1 092143Z 29002KT 20/03 A3007 RMK A01 T01960031  RH  034%=      5-min Rain = 0
KGU1 092144Z 27004KT 20/03 A3007 RMK A01 T01960032  RH  034%=      5-min Rain = 0
KGU1 092145Z 25008KT 20/03 A3007 RMK A01 T01980033  RH  034%=      5-min Rain = 0
KGU1 092146Z 28009KT 20/03 A3007 RMK A01 T01980032  RH  034%=      5-min Rain = 0
KGU1 092147Z 30005G10KT 20/03 A3007 RMK A01 T01970029  RH  033%=      5-min Rain = 0
KGU1 092148Z 31002KT 20/03 A3007 RMK A01 T01950029  RH  034%=      5-min Rain = 0
KGU1 092149Z 25002KT 20/03 A3007 RMK A01 T01960032  RH  034%=      5-min Rain = 0
KGU1 092150Z 25004KT 20/03 A3006 RMK A01 T02000034  RH  034%=      5-min Rain = 0
KGU1 092151Z 30005KT 20/04 A3007 RMK A01 T02030035  RH  034%=      5-min Rain = 0
KGU1 092152Z 29010KT 21/04 A3006 RMK A01 T02060035  RH  033%=      5-min Rain = 0
KGU1 092153Z 26008KT 21/04 A3006 RMK A01 T02080035  RH  033%=      5-min Rain = 0
KGU1 092154Z 29006KT 21/03 A3006 RMK A01 T02080033  RH  032%=      5-min Rain = 0
KGU1 092155Z 32008KT 21/03 A3006 RMK A01 T02060033  RH  032%=      5-min Rain = 0
KGU1 092156Z 25007KT 21/03 A3006 RMK A01 T02070034  RH  032%=      5-min Rain = 0
KGU1 092157Z 26006KT 21/03 A3006 RMK A01 T02060033  RH  032%=      5-min Rain = 0
KGU1 092158Z 22005KT 21/04 A3006 RMK A01 T02090038  RH  033%=      5-min Rain = 0
KGU1 092159Z 24008KT 21/03 A3006 RMK A01 T02100033  RH  032%=      5-min Rain = 0
KGU1 092200Z 23004KT 21/03 A3006 RMK A01 T02060030  RH  032%=      5-min Rain = 0
KGU1 092201Z 26002G7KT 20/03 A3006 RMK A01 T02040031  RH  033%=      5-min Rain = 0
KGU1 092202Z 22003KT 20/03 A3006 RMK A01 T02040032  RH  033%=      5-min Rain = 0
KGU1 092203Z 24007KT 21/03 A3006 RMK A01 T02050033  RH  033%=      5-min Rain = 0
KGU1 092204Z 23009KT 20/03 A3006 RMK A01 T02040031  RH  032%=      5-min Rain = 0
KGU1 092205Z 25005KT 20/03 A3006 RMK A01 T02030031  RH  032%=      5-min Rain = 0
KGU1 092206Z 23003KT 21/03 A3006 RMK A01 T02050032  RH  033%=      5-min Rain = 0
KGU1 092207Z 27002KT 21/03 A3006 RMK A01 T02060031  RH  032%=      5-min Rain = 0
KGU1 092208Z 30008KT 21/03 A3006 RMK A01 T02070032  RH  032%=      5-min Rain = 0
KGU1 092209Z 30010KT 21/03 A3006 RMK A01 T02050032  RH  033%=      5-min Rain = 0
KGU1 092210Z 30012KT 21/03 A3006 RMK A01 T02050031  RH  032%=      5-min Rain = 0
KGU1 092211Z 30012KT 20/03 A3006 RMK A01 T02040031  RH  032%=      5-min Rain = 0
KGU1 092212Z 30009G14KT 20/03 A3006 RMK A01 T02000028  RH  032%=      5-min Rain = 0
KGU1 092213Z 31003KT 20/03 A3006 RMK A01 T01960028  RH  033%=      5-min Rain = 0
KGU1 092214Z 28004KT 20/03 A3006 RMK A01 T01980033  RH  034%=      5-min Rain = 0
KGU1 092215Z 30001KT 20/03 A3006 RMK A01 T02010030  RH  033%=      5-min Rain = 0
KGU1 092216Z 31009G14KT 20/03 A3006 RMK A01 T02020030  RH  033%=      5-min Rain = 0
KGU1 092217Z 31007G12KT 20/03 A3006 RMK A01 T02010029  RH  032%=      5-min Rain = 0
KGU1 092218Z 24003KT 20/03 A3006 RMK A01 T02010030  RH  033%=      5-min Rain = 0
KGU1 092219Z 23001KT 20/03 A3006 RMK A01 T02020030  RH  033%=      5-min Rain = 0
KGU1 092220Z 22004KT 20/03 A3006 RMK A01 T02030030  RH  032%=      5-min Rain = 0
KGU1 092221Z 25003KT 20/03 A3006 RMK A01 T02030030  RH  032%=      5-min Rain = 0
KGU1 092222Z 27005G10KT 20/03 A3006 RMK A01 T02030031  RH  032%=      5-min Rain = 0
KGU1 092223Z 29011KT 21/03 A3006 RMK A01 T02050032  RH  033%=      5-min Rain = 0
KGU1 092224Z 30009KT 20/03 A3006 RMK A01 T02040029  RH  032%=      5-min Rain = 0
KGU1 092225Z 24006KT 21/03 A3006 RMK A01 T02050033  RH  033%=      5-min Rain = 0
KGU1 092226Z 22007KT 21/03 A3006 RMK A01 T02060031  RH  032%=      5-min Rain = 0
KGU1 092227Z 25005KT 20/03 A3006 RMK A01 T02030029  RH  032%=      5-min Rain = 0
KGU1 092228Z 27005KT 21/03 A3006 RMK A01 T02050034  RH  033%=      5-min Rain = 0
KGU1 092229Z 23005G10KT 21/03 A3006 RMK A01 T02080032  RH  032%=      5-min Rain = 0
KGU1 092230Z 27012G17KT 21/03 A3005 RMK A01 T02090030  RH  031%=      5-min Rain = 0
KGU1 092231Z 27014G19KT 21/03 A3006 RMK A01 T02090030  RH  031%=      5-min Rain = 0
KGU1 092232Z 27011KT 21/03 A3006 RMK A01 T02080026  RH  031%=      5-min Rain = 0
KGU1 092233Z 26004KT 20/02 A3006 RMK A01 T02040024  RH  031%=      5-min Rain = 0
KGU1 092234Z 28001KT 20/03 A3006 RMK A01 T02030025  RH  031%=      5-min Rain = 0
KGU1 092235Z 28001KT 20/02 A3006 RMK A01 T02020024  RH  031%=      5-min Rain = 0
KGU1 092236Z 21003KT 20/03 A3006 RMK A01 T02030026  RH  032%=      5-min Rain = 0
KGU1 092237Z 36002KT 20/03 A3006 RMK A01 T02030026  RH  031%=      5-min Rain = 0
KGU1 092238Z 28007G13KT 20/03 A3006 RMK A01 T02030026  RH  031%=      5-min Rain = 0
KGU1 092239Z 29006KT 20/02 A3006 RMK A01 T02020024  RH  031%=      5-min Rain = 0
KGU1 092240Z 31011G18KT 20/02 A3006 RMK A01 T02000023  RH  031%=      5-min Rain = 0
KGU1 092241Z 30012KT 20/02 A3006 RMK A01 T01970023  RH  032%=      5-min Rain = 0
KGU1 092242Z 30010KT 20/03 A3006 RMK A01 T01960026  RH  033%=      5-min Rain = 0
KGU1 092243Z 32010KT 20/03 A3006 RMK A01 T01990027  RH  032%=      5-min Rain = 0
KGU1 092244Z 33008KT 20/03 A3006 RMK A01 T02000026  RH  032%=      5-min Rain = 0
KGU1 092245Z 32004KT 20/02 A3006 RMK A01 T01990023  RH  032%=      5-min Rain = 0
KGU1 092246Z 28005KT 20/03 A3005 RMK A01 T01990025  RH  032%=      5-min Rain = 0
KGU1 092247Z 33002KT 20/02 A3005 RMK A01 T02000024  RH  032%=      5-min Rain = 0
KGU1 092248Z 31011KT 20/03 A3006 RMK A01 T02020029  RH  032%=      5-min Rain = 0
KGU1 092249Z 33013KT 20/03 A3006 RMK A01 T02030026  RH  032%=      5-min Rain = 0
KGU1 092250Z 34006KT 20/03 A3005 RMK A01 T02020028  RH  032%=      5-min Rain = 0
KGU1 092251Z 22003KT 20/03 A3005 RMK A01 T02040030  RH  032%=      5-min Rain = 0
KGU1 092252Z 22005KT 21/03 A3005 RMK A01 T02050027  RH  031%=      5-min Rain = 0
KGU1 092253Z 27004KT 21/03 A3005 RMK A01 T02050029  RH  032%=      5-min Rain = 0
KGU1 092254Z 27005KT 21/03 A3005 RMK A01 T02060028  RH  031%=      5-min Rain = 0
KGU1 092255Z 24004KT 21/03 A3005 RMK A01 T02060029  RH  032%=      5-min Rain = 0
KGU1 092256Z 25003KT 21/03 A3005 RMK A01 T02050028  RH  031%=      5-min Rain = 0
KGU1 092257Z 29002KT 21/03 A3005 RMK A01 T02060029  RH  032%=      5-min Rain = 0
KGU1 092258Z 29003KT 21/03 A3005 RMK A01 T02080033  RH  032%=      5-min Rain = 0
KGU1 092259Z 29007KT 21/03 A3005 RMK A01 T02110032  RH  031%=      5-min Rain = 0
KGU1 092300Z 27008KT 21/03 A3005 RMK A01 T02090028  RH  031%=      5-min Rain = 0
KGU1 092301Z 28007KT 21/03 A3005 RMK A01 T02050027  RH  031%=      5-min Rain = 0
KGU1 092302Z 28006KT 20/03 A3005 RMK A01 T02040029  RH  032%=      5-min Rain = 0
KGU1 092303Z 28002KT 20/03 A3005 RMK A01 T02040029  RH  032%=      5-min Rain = 0
KGU1 092304Z 23005KT 20/03 A3005 RMK A01 T02040030  RH  032%=      5-min Rain = 0
KGU1 092305Z 25004KT 20/03 A3005 RMK A01 T02020030  RH  033%=      5-min Rain = 0
KGU1 092306Z 26005KT 20/03 A3005 RMK A01 T02040031  RH  032%=      5-min Rain = 0
KGU1 092307Z 26006KT 21/03 A3005 RMK A01 T02050029  RH  032%=      5-min Rain = 0
KGU1 092308Z 23005KT 21/03 A3005 RMK A01 T02050029  RH  032%=      5-min Rain = 0
KGU1 092309Z 23005KT 21/03 A3005 RMK A01 T02050027  RH  031%=      5-min Rain = 0
KGU1 092310Z 20002KT 20/03 A3005 RMK A01 T02040026  RH  031%=      5-min Rain = 0
KGU1 092311Z 27001KT 20/03 A3005 RMK A01 T02020026  RH  032%=      5-min Rain = 0
KGU1 092312Z 27005KT 20/03 A3005 RMK A01 T02040028  RH  032%=      5-min Rain = 0
KGU1 092313Z 28008KT 20/03 A3005 RMK A01 T02030028  RH  032%=      5-min Rain = 0
KGU1 092314Z 23005KT 20/03 A3005 RMK A01 T02010029  RH  033%=      5-min Rain = 0
KGU1 092315Z 29003KT 20/03 A3005 RMK A01 T02010025  RH  032%=      5-min Rain = 0
KGU1 092316Z 11003KT 20/02 A3005 RMK A01 T02010024  RH  031%=      5-min Rain = 0
KGU1 092317Z 22003KT 20/03 A3005 RMK A01 T02010025  RH  032%=      5-min Rain = 0
KGU1 092318Z 25002KT 20/03 A3005 RMK A01 T02020027  RH  032%=      5-min Rain = 0
KGU1 092319Z 26005KT 21/03 A3005 RMK A01 T02050029  RH  032%=      5-min Rain = 0
KGU1 092320Z 27006KT 21/03 A3005 RMK A01 T02080029  RH  031%=      5-min Rain = 0
KGU1 092321Z 27007KT 21/03 A3005 RMK A01 T02080027  RH  031%=      5-min Rain = 0
KGU1 092322Z 28006KT 21/03 A3005 RMK A01 T02060027  RH  031%=      5-min Rain = 0
KGU1 092323Z 26008KT 21/03 A3005 RMK A01 T02070027  RH  031%=      5-min Rain = 0
KGU1 092324Z 25006KT 21/02 A3005 RMK A01 T02070023  RH  030%=      5-min Rain = 0
KGU1 092325Z 29004KT 21/02 A3005 RMK A01 T02060024  RH  030%=      5-min Rain = 0
KGU1 092326Z 28004KT 21/03 A3005 RMK A01 T02060025  RH  030%=      5-min Rain = 0
KGU1 092327Z 28004KT 21/03 A3005 RMK A01 T02060025  RH  031%=      5-min Rain = 0
KGU1 092328Z 29006KT 21/03 A3005 RMK A01 T02080026  RH  031%=      5-min Rain = 0
KGU1 092329Z 27004KT 21/03 A3005 RMK A01 T02060025  RH  031%=      5-min Rain = 0
KGU1 092330Z 24003KT 21/03 A3005 RMK A01 T02070026  RH  031%=      5-min Rain = 0
KGU1 092331Z 32006KT 21/03 A3005 RMK A01 T02090028  RH  031%=      5-min Rain = 0
KGU1 092332Z 33008KT 21/02 A3005 RMK A01 T02080024  RH  030%=      5-min Rain = 0
KGU1 092333Z 33006KT 21/02 A3005 RMK A01 T02050024  RH  031%=      5-min Rain = 0
KGU1 092334Z 34004KT 20/03 A3005 RMK A01 T02040025  RH  031%=      5-min Rain = 0
KGU1 092335Z 33003KT 21/03 A3005 RMK A01 T02050025  RH  031%=      5-min Rain = 0
KGU1 092336Z 29003KT 21/02 A3005 RMK A01 T02050024  RH  031%=      5-min Rain = 0
KGU1 092337Z 24003KT 21/03 A3005 RMK A01 T02060026  RH  031%=      5-min Rain = 0
KGU1 092338Z 21005KT 21/03 A3005 RMK A01 T02080029  RH  031%=      5-min Rain = 0
KGU1 092339Z 22006KT 21/03 A3005 RMK A01 T02070028  RH  031%=      5-min Rain = 0
KGU1 092340Z 22006KT 21/03 A3005 RMK A01 T02060029  RH  032%=      5-min Rain = 0
KGU1 092341Z 24007KT 21/03 A3005 RMK A01 T02060027  RH  031%=      5-min Rain = 0
KGU1 092342Z 23006KT 21/03 A3005 RMK A01 T02050027  RH  031%=      5-min Rain = 0
KGU1 092343Z 21007KT 21/03 A3005 RMK A01 T02060028  RH  031%=      5-min Rain = 0
KGU1 092344Z 21007KT 21/03 A3005 RMK A01 T02050026  RH  031%=      5-min Rain = 0
KGU1 092345Z 21005KT 20/03 A3005 RMK A01 T02040028  RH  032%=      5-min Rain = 0
KGU1 092346Z 20004KT 20/03 A3005 RMK A01 T02030029  RH  032%=      5-min Rain = 0
KGU1 092347Z 19008KT 20/03 A3005 RMK A01 T02040030  RH  032%=      5-min Rain = 0
KGU1 092348Z 21005KT 20/02 A3005 RMK A01 T02030024  RH  031%=      5-min Rain = 0
KGU1 092349Z 22007KT 20/03 A3005 RMK A01 T02020026  RH  032%=      5-min Rain = 0
KGU1 092350Z 23004KT 20/03 A3005 RMK A01 T02030026  RH  032%=      5-min Rain = 0
KGU1 092351Z 23007KT 21/03 A3005 RMK A01 T02050028  RH  031%=      5-min Rain = 0
KGU1 092352Z 23008KT 21/03 A3005 RMK A01 T02060025  RH  031%=      5-min Rain = 0
KGU1 092353Z 22007KT 20/02 A3005 RMK A01 T02040024  RH  031%=      5-min Rain = 0
KGU1 092354Z 23005KT 20/02 A3005 RMK A01 T02040024  RH  031%=      5-min Rain = 0
KGU1 092355Z 22010KT 20/03 A3005 RMK A01 T02040025  RH  031%=      5-min Rain = 0
KGU1 092356Z 23008KT 20/03 A3005 RMK A01 T02030026  RH  031%=      5-min Rain = 0
KGU1 092357Z 23007KT 20/03 A3005 RMK A01 T02020025  RH  031%=      5-min Rain = 0
KGU1 092358Z 23007KT 20/03 A3005 RMK A01 T02020025  RH  031%=      5-min Rain = 0
KGU1 092359Z 21006KT 20/02 A3005 RMK A01 T02010024  RH  031%=      5-min Rain = 0
KGU1 100000Z 23006KT 20/03 A3005 RMK A01 T02020027  RH  032%=      5-min Rain = 0
KGU1 100001Z 22005KT 20/03 A3005 RMK A01 T02030026  RH  031%=      5-min Rain = 0
KGU1 100002Z 23003KT 20/03 A3005 RMK A01 T02030026  RH  032%=      5-min Rain = 0
KGU1 100003Z 23006KT 20/03 A3005 RMK A01 T02040026  RH  031%=      5-min Rain = 0
KGU1 100004Z 21005KT 21/03 A3005 RMK A01 T02050026  RH  031%=      5-min Rain = 0
KGU1 100005Z 25007KT 20/02 A3005 RMK A01 T02040024  RH  031%=      5-min Rain = 0
KGU1 100006Z 23006KT 20/02 A3005 RMK A01 T02030023  RH  031%=      5-min Rain = 0
KGU1 100007Z 26003KT 20/02 A3005 RMK A01 T02010021  RH  031%=      5-min Rain = 0
KGU1 100008Z 30005KT 20/02 A3005 RMK A01 T01990021  RH  031%=      5-min Rain = 0
KGU1 100009Z 29005KT 20/02 A3005 RMK A01 T01970021  RH  032%=      5-min Rain = 0
KGU1 100010Z 28007KT 20/02 A3005 RMK A01 T01950020  RH  032%=      5-min Rain = 0
KGU1 100011Z 28003KT 19/02 A3005 RMK A01 T01940017  RH  031%=      5-min Rain = 0
KGU1 100012Z 26004KT 19/02 A3005 RMK A01 T01940018  RH  032%=      5-min Rain = 0
KGU1 100013Z 28005KT 19/02 A3005 RMK A01 T01930021  RH  032%=      5-min Rain = 0
KGU1 100014Z 27006KT 19/02 A3006 RMK A01 T01930022  RH  033%=      5-min Rain = 0
KGU1 100015Z 29006KT 19/02 A3006 RMK A01 T01920023  RH  033%=      5-min Rain = 0
KGU1 100016Z 25005KT 19/02 A3006 RMK A01 T01920023  RH  033%=      5-min Rain = 0
KGU1 100017Z 21007KT 19/02 A3006 RMK A01 T01910024  RH  033%=      5-min Rain = 0
KGU1 100018Z 21010KT 19/02 A3006 RMK A01 T01900023  RH  033%=      5-min Rain = 0
KGU1 100019Z 21008KT 19/02 A3006 RMK A01 T01900024  RH  034%=      5-min Rain = 0
KGU1 100020Z 21005KT 19/02 A3006 RMK A01 T01900024  RH  034%=      5-min Rain = 0
KGU1 100021Z 20006KT 19/02 A3006 RMK A01 T01900024  RH  034%=      5-min Rain = 0
KGU1 100022Z 21006KT 19/02 A3006 RMK A01 T01910024  RH  034%=      5-min Rain = 0
KGU1 100023Z 22006KT 19/03 A3006 RMK A01 T01900025  RH  034%=      5-min Rain = 0
KGU1 100024Z 21005KT 19/03 A3006 RMK A01 T01900025  RH  034%=      5-min Rain = 0
KGU1 100025Z 21007KT 19/03 A3006 RMK A01 T01890025  RH  034%=      5-min Rain = 0
KGU1 100026Z 22006KT 19/03 A3006 RMK A01 T01890025  RH  034%=      5-min Rain = 0
KGU1 100027Z 21005KT 19/03 A3006 RMK A01 T01890026  RH  034%=      5-min Rain = 0
KGU1 100028Z 22004KT 19/03 A3006 RMK A01 T01880026  RH  034%=      5-min Rain = 0
KGU1 100029Z 23005KT 19/02 A3006 RMK A01 T01880023  RH  034%=      5-min Rain = 0
KGU1 100030Z 23004KT 19/02 A3006 RMK A01 T01890024  RH  034%=      5-min Rain = 0
KGU1 100031Z 24004KT 19/03 A3006 RMK A01 T01890025  RH  034%=      5-min Rain = 0
KGU1 100032Z 23004KT 19/03 A3006 RMK A01 T01890026  RH  034%=      5-min Rain = 0
KGU1 100033Z 21003KT 19/03 A3006 RMK A01 T01880026  RH  035%=      5-min Rain = 0
KGU1 100034Z 20003KT 19/03 A3006 RMK A01 T01880027  RH  035%=      5-min Rain = 0
KGU1 100035Z 24007KT 19/03 A3006 RMK A01 T01870026  RH  035%=      5-min Rain = 0
KGU1 100036Z 24012KT 19/02 A3006 RMK A01 T01880021  RH  033%=      5-min Rain = 0
KGU1 100037Z 25009KT 19/02 A3006 RMK A01 T01890019  RH  033%=      5-min Rain = 0
KGU1 100038Z 25007KT 19/02 A3006 RMK A01 T01890018  RH  032%=      5-min Rain = 0
KGU1 100039Z 26006KT 19/02 A3006 RMK A01 T01890019  RH  032%=      5-min Rain = 0
KGU1 100040Z 24007KT 19/02 A3006 RMK A01 T01890019  RH  032%=      5-min Rain = 0
KGU1 100041Z 26006KT 19/02 A3006 RMK A01 T01890018  RH  032%=      5-min Rain = 0
KGU1 100042Z 27005KT 19/02 A3006 RMK A01 T01890019  RH  032%=      5-min Rain = 0
KGU1 100043Z 28004KT 19/02 A3006 RMK A01 T01890020  RH  033%=      5-min Rain = 0
KGU1 100044Z 27004KT 19/02 A3006 RMK A01 T01890020  RH  033%=      5-min Rain = 0
KGU1 100045Z 24004KT 19/02 A3006 RMK A01 T01890021  RH  033%=      5-min Rain = 0
KGU1 100046Z 23005KT 19/02 A3006 RMK A01 T01870022  RH  034%=      5-min Rain = 0
KGU1 100047Z 24008KT 19/02 A3006 RMK A01 T01870022  RH  034%=      5-min Rain = 0
KGU1 100048Z 23006KT 19/02 A3006 RMK A01 T01870021  RH  034%=      5-min Rain = 0
KGU1 100049Z 22004KT 19/02 A3006 RMK A01 T01870023  RH  034%=      5-min Rain = 0
KGU1 100050Z 23006KT 19/02 A3006 RMK A01 T01860023  RH  034%=      5-min Rain = 0
KGU1 100051Z 24006KT 19/02 A3006 RMK A01 T01860021  RH  034%=      5-min Rain = 0
KGU1 100052Z 23005KT 19/02 A3006 RMK A01 T01860020  RH  033%=      5-min Rain = 0
KGU1 100053Z 23004KT 19/02 A3006 RMK A01 T01870020  RH  033%=      5-min Rain = 0
KGU1 100054Z 22004KT 19/02 A3006 RMK A01 T01870022  RH  034%=      5-min Rain = 0
KGU1 100055Z 22005KT 19/02 A3006 RMK A01 T01860022  RH  034%=      5-min Rain = 0
KGU1 100056Z 21005KT 19/02 A3006 RMK A01 T01850022  RH  034%=      5-min Rain = 0
KGU1 100057Z 22006KT 18/02 A3006 RMK A01 T01840022  RH  034%=      5-min Rain = 0
KGU1 100058Z 22005KT 18/02 A3006 RMK A01 T01840022  RH  034%=      5-min Rain = 0
KGU1 100059Z 23007KT 18/02 A3006 RMK A01 T01840022  RH  035%=      5-min Rain = 0
KGU1 100100Z 24007KT 18/02 A3006 RMK A01 T01840021  RH  034%=      5-min Rain = 0
KGU1 100101Z 26004KT 18/02 A3006 RMK A01 T01840022  RH  034%=      5-min Rain = 0
KGU1 100102Z 25003KT 18/02 A3006 RMK A01 T01840021  RH  034%=      5-min Rain = 0
KGU1 100103Z 24003KT 18/02 A3006 RMK A01 T01840021  RH  034%=      5-min Rain = 0
KGU1 100104Z 26004KT 18/02 A3006 RMK A01 T01840020  RH  034%=      5-min Rain = 0
KGU1 100105Z 25003KT 18/02 A3006 RMK A01 T01840021  RH  034%=      5-min Rain = 0
KGU1 100106Z 25003KT 18/02 A3006 RMK A01 T01840022  RH  034%=      5-min Rain = 0
KGU1 100107Z 25003KT 18/02 A3006 RMK A01 T01830022  RH  035%=      5-min Rain = 0
KGU1 100108Z 25003KT 18/02 A3006 RMK A01 T01820022  RH  035%=      5-min Rain = 0
KGU1 100109Z 25003KT 18/02 A3006 RMK A01 T01820022  RH  035%=      5-min Rain = 0
KGU1 100110Z 25003KT 18/02 A3006 RMK A01 T01810023  RH  035%=      5-min Rain = 0
KGU1 100111Z 25003KT 18/02 A3006 RMK A01 T01810023  RH  035%=      5-min Rain = 0
KGU1 100112Z 26003KT 18/02 A3006 RMK A01 T01800022  RH  035%=      5-min Rain = 0
KGU1 100113Z 25003KT 18/02 A3006 RMK A01 T01800022  RH  035%=      5-min Rain = 0
KGU1 100114Z 25003KT 18/02 A3006 RMK A01 T01790023  RH  036%=      5-min Rain = 0
KGU1 100115Z 23003KT 18/02 A3006 RMK A01 T01790022  RH  036%=      5-min Rain = 0
KGU1 100116Z 22003KT 18/02 A3006 RMK A01 T01790022  RH  036%=      5-min Rain = 0
KGU1 100117Z 23003KT 18/02 A3006 RMK A01 T01780021  RH  036%=      5-min Rain = 0
KGU1 100118Z 26003KT 18/02 A3006 RMK A01 T01780019  RH  035%=      5-min Rain = 0
KGU1 100119Z 25003KT 18/02 A3006 RMK A01 T01790019  RH  035%=      5-min Rain = 0
KGU1 100120Z 24002KT 18/02 A3006 RMK A01 T01790020  RH  035%=      5-min Rain = 0
KGU1 100121Z 28004KT 18/02 A3006 RMK A01 T01780022  RH  036%=      5-min Rain = 0
KGU1 100122Z 27003KT 18/03 A3006 RMK A01 T01750025  RH  037%=      5-min Rain = 0
KGU1 100123Z 27003KT 17/02 A3006 RMK A01 T01720024  RH  038%=      5-min Rain = 0
KGU1 100124Z 29004KT 17/03 A3006 RMK A01 T01710025  RH  038%=      5-min Rain = 0
KGU1 100125Z 27003KT 17/03 A3006 RMK A01 T01690026  RH  039%=      5-min Rain = 0
KGU1 100126Z 27004KT 17/03 A3006 RMK A01 T01670026  RH  039%=      5-min Rain = 0
KGU1 100127Z 27004KT 17/03 A3006 RMK A01 T01660025  RH  039%=      5-min Rain = 0
KGU1 100128Z 26003KT 17/02 A3006 RMK A01 T01650024  RH  039%=      5-min Rain = 0
KGU1 100129Z 24002KT 16/02 A3006 RMK A01 T01640024  RH  039%=      5-min Rain = 0
KGU1 100130Z 23002KT 16/02 A3006 RMK A01 T01640023  RH  039%=      5-min Rain = 0
KGU1 100131Z 22003KT 17/02 A3006 RMK A01 T01650023  RH  039%=      5-min Rain = 0
KGU1 100132Z 24003KT 17/02 A3006 RMK A01 T01660022  RH  039%=      5-min Rain = 0
KGU1 100133Z 26003KT 17/02 A3006 RMK A01 T01660022  RH  039%=      5-min Rain = 0
KGU1 100134Z 27003KT 17/02 A3006 RMK A01 T01660023  RH  039%=      5-min Rain = 0
KGU1 100135Z 27004KT 16/02 A3006 RMK A01 T01640023  RH  039%=      5-min Rain = 0
KGU1 100136Z 26005KT 16/02 A3006 RMK A01 T01630024  RH  040%=      5-min Rain = 0
KGU1 100137Z 27004KT 16/02 A3006 RMK A01 T01620024  RH  040%=      5-min Rain = 0
KGU1 100138Z 27003KT 16/03 A3006 RMK A01 T01600025  RH  041%=      5-min Rain = 0
KGU1 100139Z 26003KT 16/03 A3006 RMK A01 T01590025  RH  041%=      5-min Rain = 0
KGU1 100140Z 23003KT 16/02 A3006 RMK A01 T01590023  RH  041%=      5-min Rain = 0
KGU1 100141Z 25003KT 16/02 A3006 RMK A01 T01590023  RH  041%=      5-min Rain = 0
KGU1 100142Z 28002KT 16/02 A3006 RMK A01 T01610019  RH  039%=      5-min Rain = 0
KGU1 100143Z 29004KT 17/02 A3006 RMK A01 T01650021  RH  038%=      5-min Rain = 0
KGU1 100144Z 29004KT 16/02 A3006 RMK A01 T01630024  RH  040%=      5-min Rain = 0
KGU1 100145Z 28004KT 16/03 A3006 RMK A01 T01600025  RH  041%=      5-min Rain = 0
KGU1 100146Z 28004KT 16/03 A3006 RMK A01 T01570025  RH  042%=      5-min Rain = 0
KGU1 100147Z 27005KT 16/02 A3006 RMK A01 T01550024  RH  042%=      5-min Rain = 0
KGU1 100148Z 27005KT 15/02 A3006 RMK A01 T01540024  RH  042%=      5-min Rain = 0
KGU1 100149Z 28005KT 15/02 A3006 RMK A01 T01530024  RH  042%=      5-min Rain = 0
KGU1 100150Z 28006KT 15/02 A3006 RMK A01 T01530024  RH  043%=      5-min Rain = 0
KGU1 100151Z 29006KT 15/02 A3006 RMK A01 T01510024  RH  043%=      5-min Rain = 0
KGU1 100152Z 29005KT 15/02 A3006 RMK A01 T01500024  RH  043%=      5-min Rain = 0
KGU1 100153Z 30005KT 15/02 A3006 RMK A01 T01490024  RH  044%=      5-min Rain = 0
KGU1 100154Z 30005KT 15/02 A3006 RMK A01 T01480024  RH  044%=      5-min Rain = 0
KGU1 100155Z 30005KT 15/02 A3006 RMK A01 T01480024  RH  044%=      5-min Rain = 0
KGU1 100156Z 28004KT 15/02 A3006 RMK A01 T01480024  RH  044%=      5-min Rain = 0
KGU1 100157Z 27003KT 15/02 A3006 RMK A01 T01480024  RH  044%=      5-min Rain = 0
KGU1 100158Z 27005KT 15/02 A3006 RMK A01 T01480023  RH  044%=      5-min Rain = 0
KGU1 100159Z 28005KT 15/02 A3006 RMK A01 T01470023  RH  044%=      5-min Rain = 0
KGU1 100200Z 27004KT 15/02 A3006 RMK A01 T01470023  RH  044%=      5-min Rain = 0
KGU1 100201Z 27004KT 15/02 A3007 RMK A01 T01470023  RH  044%=      5-min Rain = 0
KGU1 100202Z 29003KT 15/02 A3007 RMK A01 T01470022  RH  044%=      5-min Rain = 0
KGU1 100203Z 29002KT 15/02 A3007 RMK A01 T01490022  RH  043%=      5-min Rain = 0
KGU1 100204Z 27003KT 15/02 A3007 RMK A01 T01510023  RH  043%=      5-min Rain = 0
KGU1 100205Z 27003KT 15/02 A3007 RMK A01 T01510022  RH  042%=      5-min Rain = 0
KGU1 100206Z 26004KT 15/02 A3007 RMK A01 T01510022  RH  042%=      5-min Rain = 0
KGU1 100207Z 27005KT 15/02 A3007 RMK A01 T01500023  RH  043%=      5-min Rain = 0
KGU1 100208Z 28005KT 15/02 A3007 RMK A01 T01490023  RH  043%=      5-min Rain = 0
KGU1 100209Z 29005KT 15/02 A3007 RMK A01 T01480023  RH  043%=      5-min Rain = 0
KGU1 100210Z 29005KT 15/02 A3007 RMK A01 T01480023  RH  044%=      5-min Rain = 0
KGU1 100211Z 29004KT 15/02 A3007 RMK A01 T01470023  RH  044%=      5-min Rain = 0
KGU1 100212Z 29005KT 15/02 A3007 RMK A01 T01470023  RH  044%=      5-min Rain = 0
KGU1 100213Z 29006KT 15/02 A3007 RMK A01 T01460023  RH  044%=      5-min Rain = 0
KGU1 100214Z 29007KT 15/02 A3007 RMK A01 T01460023  RH  044%=      5-min Rain = 0
KGU1 100215Z 30007KT 15/02 A3007 RMK A01 T01450023  RH  044%=      5-min Rain = 0
KGU1 100216Z 31007KT 15/02 A3007 RMK A01 T01450023  RH  044%=      5-min Rain = 0
KGU1 100217Z 31007KT 15/02 A3007 RMK A01 T01460023  RH  044%=      5-min Rain = 0
KGU1 100218Z 30006KT 15/02 A3007 RMK A01 T01470023  RH  044%=      5-min Rain = 0
KGU1 100219Z 30005KT 15/02 A3008 RMK A01 T01460024  RH  044%=      5-min Rain = 0
KGU1 100220Z 30005KT 15/02 A3008 RMK A01 T01450023  RH  044%=      5-min Rain = 0
KGU1 100221Z 31005KT 15/02 A3008 RMK A01 T01450023  RH  044%=      5-min Rain = 0
KGU1 100222Z 27004KT 14/02 A3008 RMK A01 T01440023  RH  045%=      5-min Rain = 0
KGU1 100223Z 25004KT 14/02 A3008 RMK A01 T01430022  RH  044%=      5-min Rain = 0
KGU1 100224Z 27004KT 14/02 A3008 RMK A01 T01430022  RH  045%=      5-min Rain = 0
KGU1 100225Z 27005KT 14/02 A3008 RMK A01 T01420021  RH  045%=      5-min Rain = 0
KGU1 100226Z 28005KT 14/02 A3008 RMK A01 T01430021  RH  044%=      5-min Rain = 0
KGU1 100227Z 28005KT 14/02 A3008 RMK A01 T01440021  RH  044%=      5-min Rain = 0
KGU1 100228Z 29004KT 14/02 A3008 RMK A01 T01440021  RH  044%=      5-min Rain = 0
KGU1 100229Z 26004KT 14/02 A3008 RMK A01 T01440021  RH  044%=      5-min Rain = 0
KGU1 100230Z 26004KT 14/02 A3008 RMK A01 T01440021  RH  044%=      5-min Rain = 0
KGU1 100231Z 27004KT 15/02 A3008 RMK A01 T01450021  RH  044%=      5-min Rain = 0
KGU1 100232Z 28005KT 15/02 A3008 RMK A01 T01460020  RH  043%=      5-min Rain = 0
KGU1 100233Z 27005KT 15/02 A3008 RMK A01 T01460020  RH  043%=      5-min Rain = 0
KGU1 100234Z 28006KT 15/02 A3008 RMK A01 T01460021  RH  043%=      5-min Rain = 0
KGU1 100235Z 29006KT 15/02 A3008 RMK A01 T01450021  RH  044%=      5-min Rain = 0
KGU1 100236Z 29005KT 14/02 A3008 RMK A01 T01440021  RH  044%=      5-min Rain = 0
KGU1 100237Z 27004KT 14/02 A3008 RMK A01 T01440021  RH  044%=      5-min Rain = 0
KGU1 100238Z 27004KT 14/02 A3008 RMK A01 T01440021  RH  044%=      5-min Rain = 0
KGU1 100239Z 25004KT 14/02 A3008 RMK A01 T01430020  RH  044%=      5-min Rain = 0
KGU1 100240Z 27006KT 14/02 A3009 RMK A01 T01420020  RH  044%=      5-min Rain = 0
KGU1 100241Z 28005KT 14/02 A3009 RMK A01 T01410020  RH  045%=      5-min Rain = 0
KGU1 100242Z 30006KT 14/02 A3009 RMK A01 T01420020  RH  044%=      5-min Rain = 0
KGU1 100243Z 27006KT 14/02 A3009 RMK A01 T01430020  RH  044%=      5-min Rain = 0
KGU1 100244Z 27006KT 14/02 A3009 RMK A01 T01420020  RH  044%=      5-min Rain = 0
KGU1 100245Z 27006KT 14/02 A3009 RMK A01 T01420020  RH  044%=      5-min Rain = 0
KGU1 100246Z 28005KT 14/02 A3009 RMK A01 T01430019  RH  044%=      5-min Rain = 0
KGU1 100247Z 28005KT 14/02 A3009 RMK A01 T01430020  RH  044%=      5-min Rain = 0
KGU1 100248Z 29006KT 14/02 A3009 RMK A01 T01420020  RH  044%=      5-min Rain = 0
KGU1 100249Z 30006KT 14/02 A3009 RMK A01 T01420020  RH  044%=      5-min Rain = 0
KGU1 100250Z 30006KT 14/02 A3009 RMK A01 T01430020  RH  044%=      5-min Rain = 0
KGU1 100251Z 29007KT 14/02 A3009 RMK A01 T01440020  RH  044%=      5-min Rain = 0
KGU1 100252Z 29006KT 15/02 A3009 RMK A01 T01450019  RH  043%=      5-min Rain = 0
KGU1 100253Z 29005KT 15/02 A3009 RMK A01 T01450019  RH  043%=      5-min Rain = 0
KGU1 100254Z 29006KT 14/02 A3009 RMK A01 T01440019  RH  043%=      5-min Rain = 0
KGU1 100255Z 29006KT 15/02 A301 RMK A01 T01450019  RH  043%=      5-min Rain = 0
KGU1 100256Z 28004KT 15/02 A301 RMK A01 T01460019  RH  043%=      5-min Rain = 0
KGU1 100257Z 28005KT 15/02 A301 RMK A01 T01460019  RH  043%=      5-min Rain = 0
KGU1 100258Z 29004KT 15/02 A301 RMK A01 T01460018  RH  043%=      5-min Rain = 0
KGU1 100259Z 29004KT 15/02 A301 RMK A01 T01450018  RH  043%=      5-min Rain = 0
KGU1 100300Z 27004KT 15/02 A301 RMK A01 T01450019  RH  043%=      5-min Rain = 0
KGU1 100301Z 28005KT 14/02 A301 RMK A01 T01440018  RH  043%=      5-min Rain = 0
KGU1 100302Z 28005KT 14/02 A301 RMK A01 T01430018  RH  043%=      5-min Rain = 0
KGU1 100303Z 28006KT 14/02 A301 RMK A01 T01420018  RH  044%=      5-min Rain = 0
KGU1 100304Z 29005KT 14/02 A301 RMK A01 T01420018  RH  044%=      5-min Rain = 0
KGU1 100305Z 29005KT 14/02 A301 RMK A01 T01410018  RH  044%=      5-min Rain = 0
KGU1 100306Z 30007KT 14/02 A301 RMK A01 T01390018  RH  044%=      5-min Rain = 0
KGU1 100307Z 31006KT 14/02 A301 RMK A01 T01390019  RH  045%=      5-min Rain = 0
KGU1 100308Z 31005KT 14/02 A301 RMK A01 T01420018  RH  044%=      5-min Rain = 0
KGU1 100309Z 31005KT 14/02 A301 RMK A01 T01420018  RH  044%=      5-min Rain = 0
KGU1 100310Z 32005KT 14/02 A301 RMK A01 T01410018  RH  044%=      5-min Rain = 0
KGU1 100311Z 31005KT 14/02 A301 RMK A01 T01430018  RH  044%=      5-min Rain = 0
KGU1 100312Z 31004KT 15/02 A301 RMK A01 T01450018  RH  043%=      5-min Rain = 0
KGU1 100313Z 31004KT 15/02 A301 RMK A01 T01490018  RH  042%=      5-min Rain = 0
KGU1 100314Z 31004KT 15/02 A301 RMK A01 T01490019  RH  042%=      5-min Rain = 0
KGU1 100315Z 31004KT 15/02 A301 RMK A01 T01480019  RH  042%=      5-min Rain = 0
KGU1 100316Z 31004KT 15/02 A301 RMK A01 T01450019  RH  043%=      5-min Rain = 0
KGU1 100317Z 31004KT 14/02 A301 RMK A01 T01430019  RH  044%=      5-min Rain = 0
KGU1 100318Z 30004KT 14/02 A301 RMK A01 T01410019  RH  044%=      5-min Rain = 0
KGU1 100319Z 31004KT 14/02 A301 RMK A01 T01410019  RH  044%=      5-min Rain = 0
KGU1 100320Z 31002KT 14/02 A301 RMK A01 T01410019  RH  044%=      5-min Rain = 0
KGU1 100321Z 31004KT 14/02 A301 RMK A01 T01420018  RH  044%=      5-min Rain = 0
KGU1 100322Z 30004KT 14/02 A301 RMK A01 T01430019  RH  044%=      5-min Rain = 0
KGU1 100323Z 29005KT 14/02 A301 RMK A01 T01440018  RH  043%=      5-min Rain = 0
KGU1 100324Z 30006KT 15/02 A301 RMK A01 T01450018  RH  043%=      5-min Rain = 0
KGU1 100325Z 29006KT 15/02 A301 RMK A01 T01470018  RH  042%=      5-min Rain = 0
KGU1 100326Z 30007KT 15/02 A301 RMK A01 T01480017  RH  042%=      5-min Rain = 0
KGU1 100327Z 30007KT 15/02 A301 RMK A01 T01480017  RH  042%=      5-min Rain = 0
KGU1 100328Z 30006KT 15/02 A301 RMK A01 T01480017  RH  042%=      5-min Rain = 0
KGU1 100329Z 30005KT 15/02 A301 RMK A01 T01480017  RH  042%=      5-min Rain = 0
KGU1 100330Z 31005KT 15/02 A301 RMK A01 T01480017  RH  042%=      5-min Rain = 0
KGU1 100331Z 32005KT 15/02 A301 RMK A01 T01470017  RH  042%=      5-min Rain = 0
KGU1 100332Z 31005KT 15/02 A301 RMK A01 T01460017  RH  042%=      5-min Rain = 0
KGU1 100333Z 31005KT 15/02 A3011 RMK A01 T01460017  RH  042%=      5-min Rain = 0
KGU1 100334Z 31005KT 15/02 A3011 RMK A01 T01460017  RH  042%=      5-min Rain = 0
KGU1 100335Z 30006KT 15/02 A3011 RMK A01 T01460016  RH  042%=      5-min Rain = 0
KGU1 100336Z 30006KT 15/02 A3011 RMK A01 T01460017  RH  042%=      5-min Rain = 0
KGU1 100337Z 31006KT 15/02 A3011 RMK A01 T01460017  RH  042%=      5-min Rain = 0
KGU1 100338Z 30006KT 15/02 A3011 RMK A01 T01480017  RH  042%=      5-min Rain = 0
KGU1 100339Z 31005KT 15/02 A3011 RMK A01 T01510016  RH  041%=      5-min Rain = 0
KGU1 100340Z 31006KT 15/02 A3011 RMK A01 T01510017  RH  041%=      5-min Rain = 0
KGU1 100341Z 32005KT 15/02 A3011 RMK A01 T01490016  RH  041%=      5-min Rain = 0
KGU1 100342Z 33003KT 15/02 A3011 RMK A01 T01490016  RH  041%=      5-min Rain = 0
KGU1 100343Z 32003KT 15/02 A3011 RMK A01 T01480016  RH  041%=      5-min Rain = 0
KGU1 100344Z 30003KT 15/02 A3011 RMK A01 T01470016  RH  042%=      5-min Rain = 0
KGU1 100345Z 32004KT 15/02 A3011 RMK A01 T01470016  RH  042%=      5-min Rain = 0
KGU1 100346Z 33003KT 15/02 A3011 RMK A01 T01450016  RH  042%=      5-min Rain = 0
KGU1 100347Z 32003KT 15/02 A3011 RMK A01 T01460016  RH  042%=      5-min Rain = 0
KGU1 100348Z 32002KT 15/02 A3011 RMK A01 T01470016  RH  042%=      5-min Rain = 0
KGU1 100349Z 01002KT 15/02 A3011 RMK A01 T01460017  RH  042%=      5-min Rain = 0
KGU1 100350Z 01003KT 15/02 A3011 RMK A01 T01450017  RH  042%=      5-min Rain = 0
KGU1 100351Z 00002KT 15/02 A3011 RMK A01 T01480019  RH  042%=      5-min Rain = 0
KGU1 100352Z 01001KT 15/02 A3011 RMK A01 T01510021  RH  042%=      5-min Rain = 0
KGU1 100353Z 36001KT 15/02 A3011 RMK A01 T01530020  RH  041%=      5-min Rain = 0
KGU1 100354Z 03002KT 15/02 A3011 RMK A01 T01540020  RH  041%=      5-min Rain = 0
KGU1 100355Z 02003KT 15/02 A3011 RMK A01 T01540021  RH  041%=      5-min Rain = 0
KGU1 100356Z 02002KT 15/02 A3011 RMK A01 T01540022  RH  041%=      5-min Rain = 0
KGU1 100357Z 01003KT 15/02 A3011 RMK A01 T01530022  RH  042%=      5-min Rain = 0
KGU1 100358Z 02003KT 15/02 A3011 RMK A01 T01520022  RH  042%=      5-min Rain = 0
KGU1 100359Z 03005KT 15/02 A3011 RMK A01 T01500023  RH  043%=      5-min Rain = 0
KGU1 100400Z 03004KT 15/02 A3011 RMK A01 T01490024  RH  043%=      5-min Rain = 0
KGU1 100401Z 03004KT 15/02 A3011 RMK A01 T01470024  RH  044%=      5-min Rain = 0
KGU1 100402Z 03004KT 15/02 A3011 RMK A01 T01450023  RH  044%=      5-min Rain = 0
KGU1 100403Z 03005KT 14/02 A3011 RMK A01 T01440024  RH  045%=      5-min Rain = 0
KGU1 100404Z 03003KT 14/02 A3011 RMK A01 T01420024  RH  045%=      5-min Rain = 0
KGU1 100405Z 03004KT 14/02 A3011 RMK A01 T01410024  RH  046%=      5-min Rain = 0
KGU1 100406Z 03004KT 14/03 A3011 RMK A01 T01400025  RH  047%=      5-min Rain = 0
KGU1 100407Z 02003KT 14/03 A3011 RMK A01 T01390025  RH  047%=      5-min Rain = 0
KGU1 100408Z 02003KT 14/03 A3011 RMK A01 T01380025  RH  047%=      5-min Rain = 0
KGU1 100409Z 01003KT 14/03 A3012 RMK A01 T01360025  RH  048%=      5-min Rain = 0
KGU1 100410Z 00004KT 14/03 A3012 RMK A01 T01350025  RH  048%=      5-min Rain = 0
KGU1 100411Z 01004KT 13/03 A3012 RMK A01 T01340026  RH  049%=      5-min Rain = 0
KGU1 100412Z 01003KT 13/03 A3012 RMK A01 T01340026  RH  049%=      5-min Rain = 0
KGU1 100413Z 00004KT 13/03 A3012 RMK A01 T01340027  RH  049%=      5-min Rain = 0
KGU1 100414Z 35003KT 14/03 A3012 RMK A01 T01360027  RH  048%=      5-min Rain = 0
KGU1 100415Z 00003KT 14/03 A3012 RMK A01 T01370027  RH  048%=      5-min Rain = 0
KGU1 100416Z 01004KT 14/03 A3012 RMK A01 T01370027  RH  048%=      5-min Rain = 0
KGU1 100417Z 00003KT 14/03 A3012 RMK A01 T01380027  RH  048%=      5-min Rain = 0
KGU1 100418Z 36004KT 14/03 A3012 RMK A01 T01380027  RH  048%=      5-min Rain = 0
KGU1 100419Z 00005KT 14/03 A3012 RMK A01 T01370027  RH  048%=      5-min Rain = 0
KGU1 100420Z 00006KT 14/03 A3012 RMK A01 T01360027  RH  048%=      5-min Rain = 0
KGU1 100421Z 01006KT 14/03 A3012 RMK A01 T01360027  RH  048%=      5-min Rain = 0
KGU1 100422Z 01005KT 14/03 A3013 RMK A01 T01370027  RH  048%=      5-min Rain = 0
KGU1 100423Z 01005KT 14/03 A3012 RMK A01 T01370027  RH  048%=      5-min Rain = 0
KGU1 100424Z 02006KT 14/03 A3012 RMK A01 T01380027  RH  048%=      5-min Rain = 0
KGU1 100425Z 01005KT 14/03 A3013 RMK A01 T01380027  RH  048%=      5-min Rain = 0
KGU1 100426Z 01005KT 14/03 A3013 RMK A01 T01390027  RH  048%=      5-min Rain = 0
KGU1 100427Z 02003KT 14/03 A3013 RMK A01 T01400027  RH  047%=      5-min Rain = 0
KGU1 100428Z 02004KT 14/03 A3013 RMK A01 T01400027  RH  047%=      5-min Rain = 0
KGU1 100429Z 01005KT 14/03 A3013 RMK A01 T01400027  RH  047%=      5-min Rain = 0
KGU1 100430Z 01005KT 14/03 A3013 RMK A01 T01390028  RH  048%=      5-min Rain = 0
KGU1 100431Z 04004KT 14/03 A3013 RMK A01 T01400028  RH  047%=      5-min Rain = 0
KGU1 100432Z 03007KT 14/03 A3013 RMK A01 T01410028  RH  047%=      5-min Rain = 0
KGU1 100433Z 02006KT 14/03 A3013 RMK A01 T01410028  RH  047%=      5-min Rain = 0
KGU1 100434Z 03007KT 14/03 A3013 RMK A01 T01420028  RH  047%=      5-min Rain = 0
KGU1 100435Z 03006KT 14/03 A3013 RMK A01 T01440028  RH  046%=      5-min Rain = 0
KGU1 100436Z 03006KT 15/03 A3013 RMK A01 T01450028  RH  046%=      5-min Rain = 0
KGU1 100437Z 03005KT 14/03 A3013 RMK A01 T01440028  RH  046%=      5-min Rain = 0
KGU1 100438Z 01004KT 14/03 A3013 RMK A01 T01440028  RH  046%=      5-min Rain = 0
KGU1 100439Z 04005KT 14/03 A3013 RMK A01 T01440028  RH  046%=      5-min Rain = 0
KGU1 100440Z 04006KT 14/03 A3013 RMK A01 T01440028  RH  046%=      5-min Rain = 0
KGU1 100441Z 02004KT 15/03 A3013 RMK A01 T01470028  RH  046%=      5-min Rain = 0
KGU1 100442Z 02004KT 15/03 A3013 RMK A01 T01480028  RH  045%=      5-min Rain = 0
KGU1 100443Z 03006KT 15/03 A3013 RMK A01 T01500028  RH  045%=      5-min Rain = 0
KGU1 100444Z 03005KT 15/03 A3013 RMK A01 T01520029  RH  044%=      5-min Rain = 0
KGU1 100445Z 02005KT 15/03 A3013 RMK A01 T01520028  RH  044%=      5-min Rain = 0
KGU1 100446Z 01006KT 15/03 A3013 RMK A01 T01520028  RH  044%=      5-min Rain = 0
KGU1 100447Z 02007KT 15/03 A3013 RMK A01 T01490028  RH  045%=      5-min Rain = 0
KGU1 100448Z 02005KT 15/03 A3013 RMK A01 T01470028  RH  046%=      5-min Rain = 0
KGU1 100449Z 04006KT 15/03 A3013 RMK A01 T01450028  RH  046%=      5-min Rain = 0
KGU1 100450Z 02004KT 15/03 A3013 RMK A01 T01450029  RH  046%=      5-min Rain = 0
KGU1 100451Z 01004KT 14/03 A3013 RMK A01 T01440028  RH  046%=      5-min Rain = 0
KGU1 100452Z 02004KT 14/03 A3013 RMK A01 T01430028  RH  047%=      5-min Rain = 0
KGU1 100453Z 04004KT 14/03 A3013 RMK A01 T01410028  RH  047%=      5-min Rain = 0
KGU1 100454Z 06003KT 14/03 A3013 RMK A01 T01410028  RH  047%=      5-min Rain = 0
KGU1 100455Z 04004KT 14/03 A3013 RMK A01 T01420028  RH  047%=      5-min Rain = 0
KGU1 100456Z 02004KT 14/03 A3013 RMK A01 T01420028  RH  047%=      5-min Rain = 0
KGU1 100457Z 02005KT 14/03 A3013 RMK A01 T01420029  RH  047%=      5-min Rain = 0
KGU1 100458Z 01005KT 14/03 A3013 RMK A01 T01420028  RH  047%=      5-min Rain = 0
KGU1 100459Z 02006KT 14/03 A3013 RMK A01 T01420028  RH  047%=      5-min Rain = 0

Page generated in 0.1741 seconds.